<?xml version="1.0" encoding="UTF-8" standalone="no" ?>
<gpx xmlns="http://www.topografix.com/GPX/1/1" xmlns:xsi="http://www.w3.org/2001/XMLSchema-instance" xsi:schemaLocation="http://www.topografix.com/GPX/1/1 http://www.topografix.com/GPX/1/1/gpx.xsd" version="1.1" creator="VisuGPX - https://www.visugpx.com">
  <metadata>
    <name>Seillons (tour simple)</name>
    <desc><![CDATA[Petit tour VTT au départ de Seillon]]></desc>
  </metadata>
  <trk>
    <name><![CDATA[20180421074024-B26Xt]]></name>
    <trkseg>
      <trkpt lat="43.50354" lon="5.88681">
        <ele>308</ele>
        <time>2016-05-15T05:09:50Z</time>
      </trkpt>
      <trkpt lat="43.50374" lon="5.88683">
        <ele>309</ele>
        <time>2016-05-15T05:11:21Z</time>
      </trkpt>
      <trkpt lat="43.5037" lon="5.88659">
        <ele>311</ele>
        <time>2016-05-15T05:13:04Z</time>
      </trkpt>
      <trkpt lat="43.50384" lon="5.88643">
        <ele>312</ele>
        <time>2016-05-15T05:13:15Z</time>
      </trkpt>
      <trkpt lat="43.504" lon="5.88627">
        <ele>313</ele>
        <time>2016-05-15T05:13:22Z</time>
      </trkpt>
      <trkpt lat="43.50417" lon="5.88616">
        <ele>314</ele>
        <time>2016-05-15T05:13:29Z</time>
      </trkpt>
      <trkpt lat="43.50435" lon="5.88608">
        <ele>317</ele>
        <time>2016-05-15T05:13:39Z</time>
      </trkpt>
      <trkpt lat="43.50455" lon="5.88599">
        <ele>317</ele>
        <time>2016-05-15T05:13:47Z</time>
      </trkpt>
      <trkpt lat="43.50472" lon="5.88584">
        <ele>317</ele>
        <time>2016-05-15T05:13:53Z</time>
      </trkpt>
      <trkpt lat="43.50488" lon="5.8857">
        <ele>318</ele>
        <time>2016-05-15T05:14:01Z</time>
      </trkpt>
      <trkpt lat="43.50506" lon="5.88557">
        <ele>320</ele>
        <time>2016-05-15T05:14:10Z</time>
      </trkpt>
      <trkpt lat="43.50521" lon="5.88545">
        <ele>322</ele>
        <time>2016-05-15T05:14:20Z</time>
      </trkpt>
      <trkpt lat="43.50537" lon="5.88528">
        <ele>322</ele>
        <time>2016-05-15T05:14:30Z</time>
      </trkpt>
      <trkpt lat="43.5055" lon="5.88509">
        <ele>322</ele>
        <time>2016-05-15T05:14:37Z</time>
      </trkpt>
      <trkpt lat="43.50564" lon="5.88492">
        <ele>324</ele>
        <time>2016-05-15T05:14:46Z</time>
      </trkpt>
      <trkpt lat="43.5058" lon="5.88475">
        <ele>325</ele>
        <time>2016-05-15T05:14:55Z</time>
      </trkpt>
      <trkpt lat="43.50596" lon="5.88457">
        <ele>324</ele>
        <time>2016-05-15T05:15:02Z</time>
      </trkpt>
      <trkpt lat="43.50615" lon="5.8845">
        <ele>324</ele>
        <time>2016-05-15T05:15:11Z</time>
      </trkpt>
      <trkpt lat="43.50634" lon="5.88448">
        <ele>324</ele>
        <time>2016-05-15T05:15:22Z</time>
      </trkpt>
      <trkpt lat="43.50654" lon="5.88439">
        <ele>323</ele>
        <time>2016-05-15T05:15:32Z</time>
      </trkpt>
      <trkpt lat="43.5067" lon="5.88426">
        <ele>323</ele>
        <time>2016-05-15T05:15:39Z</time>
      </trkpt>
      <trkpt lat="43.50687" lon="5.88409">
        <ele>326</ele>
        <time>2016-05-15T05:15:59Z</time>
      </trkpt>
      <trkpt lat="43.50704" lon="5.88392">
        <ele>328</ele>
        <time>2016-05-15T05:16:07Z</time>
      </trkpt>
      <trkpt lat="43.50716" lon="5.88372">
        <ele>328</ele>
        <time>2016-05-15T05:16:13Z</time>
      </trkpt>
      <trkpt lat="43.50728" lon="5.88349">
        <ele>328</ele>
        <time>2016-05-15T05:16:18Z</time>
      </trkpt>
      <trkpt lat="43.5074" lon="5.88329">
        <ele>330</ele>
        <time>2016-05-15T05:16:28Z</time>
      </trkpt>
      <trkpt lat="43.50753" lon="5.88307">
        <ele>332</ele>
        <time>2016-05-15T05:16:32Z</time>
      </trkpt>
      <trkpt lat="43.50766" lon="5.88289">
        <ele>335</ele>
        <time>2016-05-15T05:16:37Z</time>
      </trkpt>
      <trkpt lat="43.50786" lon="5.88283">
        <ele>336</ele>
        <time>2016-05-15T05:16:46Z</time>
      </trkpt>
      <trkpt lat="43.50804" lon="5.8829">
        <ele>336</ele>
        <time>2016-05-15T05:16:53Z</time>
      </trkpt>
      <trkpt lat="43.50819" lon="5.88309">
        <ele>334</ele>
        <time>2016-05-15T05:17:00Z</time>
      </trkpt>
      <trkpt lat="43.50825" lon="5.88334">
        <ele>330</ele>
        <time>2016-05-15T05:17:08Z</time>
      </trkpt>
      <trkpt lat="43.50823" lon="5.88361">
        <ele>329</ele>
        <time>2016-05-15T05:17:17Z</time>
      </trkpt>
      <trkpt lat="43.50827" lon="5.88386">
        <ele>329</ele>
        <time>2016-05-15T05:17:27Z</time>
      </trkpt>
      <trkpt lat="43.50842" lon="5.88402">
        <ele>331</ele>
        <time>2016-05-15T05:17:37Z</time>
      </trkpt>
      <trkpt lat="43.50858" lon="5.88416">
        <ele>332</ele>
        <time>2016-05-15T05:17:49Z</time>
      </trkpt>
      <trkpt lat="43.50873" lon="5.8843">
        <ele>336</ele>
        <time>2016-05-15T05:17:59Z</time>
      </trkpt>
      <trkpt lat="43.50889" lon="5.88442">
        <ele>337</ele>
        <time>2016-05-15T05:18:07Z</time>
      </trkpt>
      <trkpt lat="43.50905" lon="5.88455">
        <ele>338</ele>
        <time>2016-05-15T05:18:16Z</time>
      </trkpt>
      <trkpt lat="43.50918" lon="5.88475">
        <ele>341</ele>
        <time>2016-05-15T05:18:26Z</time>
      </trkpt>
      <trkpt lat="43.50935" lon="5.88488">
        <ele>341</ele>
        <time>2016-05-15T05:18:36Z</time>
      </trkpt>
      <trkpt lat="43.50953" lon="5.88492">
        <ele>341</ele>
        <time>2016-05-15T05:18:46Z</time>
      </trkpt>
      <trkpt lat="43.50971" lon="5.88491">
        <ele>341</ele>
        <time>2016-05-15T05:18:56Z</time>
      </trkpt>
      <trkpt lat="43.5099" lon="5.88491">
        <ele>341</ele>
        <time>2016-05-15T05:19:07Z</time>
      </trkpt>
      <trkpt lat="43.51009" lon="5.8849">
        <ele>343</ele>
        <time>2016-05-15T05:19:16Z</time>
      </trkpt>
      <trkpt lat="43.51026" lon="5.88498">
        <ele>344</ele>
        <time>2016-05-15T05:19:24Z</time>
      </trkpt>
      <trkpt lat="43.51043" lon="5.88509">
        <ele>349</ele>
        <time>2016-05-15T05:19:33Z</time>
      </trkpt>
      <trkpt lat="43.5106" lon="5.88519">
        <ele>350</ele>
        <time>2016-05-15T05:19:43Z</time>
      </trkpt>
      <trkpt lat="43.51076" lon="5.88532">
        <ele>350</ele>
        <time>2016-05-15T05:19:53Z</time>
      </trkpt>
      <trkpt lat="43.51089" lon="5.88549">
        <ele>354</ele>
        <time>2016-05-15T05:20:02Z</time>
      </trkpt>
      <trkpt lat="43.511" lon="5.88571">
        <ele>354</ele>
        <time>2016-05-15T05:20:12Z</time>
      </trkpt>
      <trkpt lat="43.51105" lon="5.88596">
        <ele>356</ele>
        <time>2016-05-15T05:20:22Z</time>
      </trkpt>
      <trkpt lat="43.51106" lon="5.88621">
        <ele>358</ele>
        <time>2016-05-15T05:20:32Z</time>
      </trkpt>
      <trkpt lat="43.51104" lon="5.88647">
        <ele>358</ele>
        <time>2016-05-15T05:20:43Z</time>
      </trkpt>
      <trkpt lat="43.51117" lon="5.88666">
        <ele>358</ele>
        <time>2016-05-15T05:20:55Z</time>
      </trkpt>
      <trkpt lat="43.51137" lon="5.88672">
        <ele>361</ele>
        <time>2016-05-15T05:21:06Z</time>
      </trkpt>
      <trkpt lat="43.51151" lon="5.88689">
        <ele>361</ele>
        <time>2016-05-15T05:21:15Z</time>
      </trkpt>
      <trkpt lat="43.51169" lon="5.88701">
        <ele>360</ele>
        <time>2016-05-15T05:21:26Z</time>
      </trkpt>
      <trkpt lat="43.51187" lon="5.887">
        <ele>360</ele>
        <time>2016-05-15T05:21:35Z</time>
      </trkpt>
      <trkpt lat="43.51204" lon="5.88706">
        <ele>360</ele>
        <time>2016-05-15T05:21:46Z</time>
      </trkpt>
      <trkpt lat="43.51223" lon="5.88706">
        <ele>360</ele>
        <time>2016-05-15T05:21:56Z</time>
      </trkpt>
      <trkpt lat="43.51241" lon="5.8871">
        <ele>360</ele>
        <time>2016-05-15T05:24:07Z</time>
      </trkpt>
      <trkpt lat="43.51257" lon="5.88694">
        <ele>364</ele>
        <time>2016-05-15T05:24:22Z</time>
      </trkpt>
      <trkpt lat="43.51274" lon="5.88682">
        <ele>364</ele>
        <time>2016-05-15T05:24:34Z</time>
      </trkpt>
      <trkpt lat="43.51292" lon="5.88676">
        <ele>365</ele>
        <time>2016-05-15T05:24:48Z</time>
      </trkpt>
      <trkpt lat="43.51311" lon="5.88672">
        <ele>366</ele>
        <time>2016-05-15T05:24:59Z</time>
      </trkpt>
      <trkpt lat="43.51329" lon="5.88676">
        <ele>367</ele>
        <time>2016-05-15T05:25:11Z</time>
      </trkpt>
      <trkpt lat="43.51347" lon="5.88688">
        <ele>371</ele>
        <time>2016-05-15T05:25:24Z</time>
      </trkpt>
      <trkpt lat="43.51366" lon="5.88685">
        <ele>372</ele>
        <time>2016-05-15T05:25:36Z</time>
      </trkpt>
      <trkpt lat="43.51382" lon="5.88673">
        <ele>372</ele>
        <time>2016-05-15T05:25:48Z</time>
      </trkpt>
      <trkpt lat="43.51399" lon="5.88662">
        <ele>375</ele>
        <time>2016-05-15T05:25:58Z</time>
      </trkpt>
      <trkpt lat="43.51416" lon="5.88654">
        <ele>375</ele>
        <time>2016-05-15T05:26:09Z</time>
      </trkpt>
      <trkpt lat="43.51435" lon="5.88645">
        <ele>379</ele>
        <time>2016-05-15T05:26:20Z</time>
      </trkpt>
      <trkpt lat="43.51454" lon="5.88636">
        <ele>380</ele>
        <time>2016-05-15T05:26:30Z</time>
      </trkpt>
      <trkpt lat="43.51471" lon="5.88625">
        <ele>381</ele>
        <time>2016-05-15T05:26:40Z</time>
      </trkpt>
      <trkpt lat="43.51491" lon="5.88624">
        <ele>381</ele>
        <time>2016-05-15T05:26:51Z</time>
      </trkpt>
      <trkpt lat="43.51509" lon="5.88616">
        <ele>385</ele>
        <time>2016-05-15T05:27:01Z</time>
      </trkpt>
      <trkpt lat="43.51527" lon="5.88606">
        <ele>385</ele>
        <time>2016-05-15T05:27:12Z</time>
      </trkpt>
      <trkpt lat="43.51545" lon="5.88596">
        <ele>386</ele>
        <time>2016-05-15T05:27:23Z</time>
      </trkpt>
      <trkpt lat="43.51564" lon="5.88591">
        <ele>386</ele>
        <time>2016-05-15T05:27:35Z</time>
      </trkpt>
      <trkpt lat="43.51581" lon="5.8858">
        <ele>387</ele>
        <time>2016-05-15T05:27:46Z</time>
      </trkpt>
      <trkpt lat="43.51596" lon="5.88562">
        <ele>389</ele>
        <time>2016-05-15T05:27:57Z</time>
      </trkpt>
      <trkpt lat="43.51612" lon="5.88552">
        <ele>389</ele>
        <time>2016-05-15T05:28:08Z</time>
      </trkpt>
      <trkpt lat="43.5163" lon="5.88545">
        <ele>390</ele>
        <time>2016-05-15T05:28:19Z</time>
      </trkpt>
      <trkpt lat="43.51649" lon="5.8854">
        <ele>390</ele>
        <time>2016-05-15T05:28:31Z</time>
      </trkpt>
      <trkpt lat="43.51667" lon="5.88539">
        <ele>394</ele>
        <time>2016-05-15T05:28:42Z</time>
      </trkpt>
      <trkpt lat="43.51686" lon="5.88545">
        <ele>394</ele>
        <time>2016-05-15T05:28:52Z</time>
      </trkpt>
      <trkpt lat="43.51705" lon="5.88547">
        <ele>395</ele>
        <time>2016-05-15T05:29:04Z</time>
      </trkpt>
      <trkpt lat="43.51724" lon="5.88551">
        <ele>395</ele>
        <time>2016-05-15T05:29:16Z</time>
      </trkpt>
      <trkpt lat="43.51742" lon="5.88555">
        <ele>396</ele>
        <time>2016-05-15T05:29:26Z</time>
      </trkpt>
      <trkpt lat="43.51761" lon="5.88559">
        <ele>399</ele>
        <time>2016-05-15T05:29:38Z</time>
      </trkpt>
      <trkpt lat="43.5178" lon="5.88554">
        <ele>400</ele>
        <time>2016-05-15T05:29:49Z</time>
      </trkpt>
      <trkpt lat="43.51798" lon="5.88545">
        <ele>400</ele>
        <time>2016-05-15T05:30:01Z</time>
      </trkpt>
      <trkpt lat="43.51817" lon="5.88549">
        <ele>400</ele>
        <time>2016-05-15T05:30:14Z</time>
      </trkpt>
      <trkpt lat="43.51833" lon="5.88561">
        <ele>401</ele>
        <time>2016-05-15T05:30:26Z</time>
      </trkpt>
      <trkpt lat="43.51851" lon="5.88569">
        <ele>405</ele>
        <time>2016-05-15T05:30:37Z</time>
      </trkpt>
      <trkpt lat="43.51869" lon="5.88575">
        <ele>405</ele>
        <time>2016-05-15T05:30:49Z</time>
      </trkpt>
      <trkpt lat="43.51887" lon="5.88583">
        <ele>407</ele>
        <time>2016-05-15T05:31:00Z</time>
      </trkpt>
      <trkpt lat="43.51903" lon="5.88595">
        <ele>409</ele>
        <time>2016-05-15T05:31:11Z</time>
      </trkpt>
      <trkpt lat="43.5192" lon="5.88602">
        <ele>412</ele>
        <time>2016-05-15T05:31:23Z</time>
      </trkpt>
      <trkpt lat="43.51938" lon="5.88614">
        <ele>413</ele>
        <time>2016-05-15T05:31:35Z</time>
      </trkpt>
      <trkpt lat="43.51955" lon="5.88623">
        <ele>414</ele>
        <time>2016-05-15T05:31:46Z</time>
      </trkpt>
      <trkpt lat="43.51973" lon="5.88632">
        <ele>415</ele>
        <time>2016-05-15T05:31:57Z</time>
      </trkpt>
      <trkpt lat="43.51992" lon="5.88627">
        <ele>415</ele>
        <time>2016-05-15T05:32:08Z</time>
      </trkpt>
      <trkpt lat="43.5201" lon="5.88619">
        <ele>421</ele>
        <time>2016-05-15T05:32:21Z</time>
      </trkpt>
      <trkpt lat="43.52028" lon="5.88616">
        <ele>422</ele>
        <time>2016-05-15T05:32:34Z</time>
      </trkpt>
      <trkpt lat="43.52047" lon="5.88617">
        <ele>423</ele>
        <time>2016-05-15T05:32:47Z</time>
      </trkpt>
      <trkpt lat="43.52065" lon="5.88624">
        <ele>424</ele>
        <time>2016-05-15T05:33:00Z</time>
      </trkpt>
      <trkpt lat="43.52083" lon="5.88626">
        <ele>425</ele>
        <time>2016-05-15T05:33:13Z</time>
      </trkpt>
      <trkpt lat="43.52101" lon="5.88624">
        <ele>432</ele>
        <time>2016-05-15T05:33:26Z</time>
      </trkpt>
      <trkpt lat="43.5212" lon="5.88627">
        <ele>433</ele>
        <time>2016-05-15T05:33:40Z</time>
      </trkpt>
      <trkpt lat="43.52138" lon="5.88625">
        <ele>435</ele>
        <time>2016-05-15T05:33:53Z</time>
      </trkpt>
      <trkpt lat="43.52158" lon="5.88626">
        <ele>436</ele>
        <time>2016-05-15T05:34:52Z</time>
      </trkpt>
      <trkpt lat="43.52176" lon="5.88625">
        <ele>443</ele>
        <time>2016-05-15T05:35:03Z</time>
      </trkpt>
      <trkpt lat="43.52195" lon="5.88626">
        <ele>444</ele>
        <time>2016-05-15T05:35:15Z</time>
      </trkpt>
      <trkpt lat="43.52214" lon="5.8863">
        <ele>445</ele>
        <time>2016-05-15T05:35:27Z</time>
      </trkpt>
      <trkpt lat="43.52232" lon="5.88632">
        <ele>446</ele>
        <time>2016-05-15T05:35:40Z</time>
      </trkpt>
      <trkpt lat="43.52251" lon="5.88634">
        <ele>451</ele>
        <time>2016-05-15T05:35:53Z</time>
      </trkpt>
      <trkpt lat="43.5227" lon="5.88637">
        <ele>451</ele>
        <time>2016-05-15T05:36:05Z</time>
      </trkpt>
      <trkpt lat="43.5229" lon="5.88635">
        <ele>452</ele>
        <time>2016-05-15T05:36:17Z</time>
      </trkpt>
      <trkpt lat="43.52304" lon="5.88617">
        <ele>453</ele>
        <time>2016-05-15T05:36:30Z</time>
      </trkpt>
      <trkpt lat="43.52318" lon="5.88601">
        <ele>454</ele>
        <time>2016-05-15T05:36:42Z</time>
      </trkpt>
      <trkpt lat="43.52335" lon="5.88591">
        <ele>456</ele>
        <time>2016-05-15T05:36:55Z</time>
      </trkpt>
      <trkpt lat="43.52343" lon="5.88568">
        <ele>458</ele>
        <time>2016-05-15T05:37:07Z</time>
      </trkpt>
      <trkpt lat="43.52358" lon="5.88553">
        <ele>459</ele>
        <time>2016-05-15T05:37:18Z</time>
      </trkpt>
      <trkpt lat="43.5237" lon="5.88532">
        <ele>460</ele>
        <time>2016-05-15T05:37:30Z</time>
      </trkpt>
      <trkpt lat="43.52381" lon="5.8851">
        <ele>461</ele>
        <time>2016-05-15T05:37:42Z</time>
      </trkpt>
      <trkpt lat="43.52398" lon="5.885">
        <ele>461</ele>
        <time>2016-05-15T05:37:53Z</time>
      </trkpt>
      <trkpt lat="43.52418" lon="5.88498">
        <ele>464</ele>
        <time>2016-05-15T05:38:03Z</time>
      </trkpt>
      <trkpt lat="43.52436" lon="5.88497">
        <ele>463</ele>
        <time>2016-05-15T05:38:12Z</time>
      </trkpt>
      <trkpt lat="43.52455" lon="5.88493">
        <ele>463</ele>
        <time>2016-05-15T05:38:20Z</time>
      </trkpt>
      <trkpt lat="43.52475" lon="5.88489">
        <ele>463</ele>
        <time>2016-05-15T05:38:28Z</time>
      </trkpt>
      <trkpt lat="43.52494" lon="5.88484">
        <ele>463</ele>
        <time>2016-05-15T05:38:35Z</time>
      </trkpt>
      <trkpt lat="43.52513" lon="5.88479">
        <ele>464</ele>
        <time>2016-05-15T05:38:42Z</time>
      </trkpt>
      <trkpt lat="43.52531" lon="5.88476">
        <ele>465</ele>
        <time>2016-05-15T05:38:49Z</time>
      </trkpt>
      <trkpt lat="43.52549" lon="5.88476">
        <ele>465</ele>
        <time>2016-05-15T05:38:56Z</time>
      </trkpt>
      <trkpt lat="43.52566" lon="5.88463">
        <ele>465</ele>
        <time>2016-05-15T05:39:04Z</time>
      </trkpt>
      <trkpt lat="43.52582" lon="5.88447">
        <ele>466</ele>
        <time>2016-05-15T05:39:12Z</time>
      </trkpt>
      <trkpt lat="43.526" lon="5.88438">
        <ele>468</ele>
        <time>2016-05-15T05:39:20Z</time>
      </trkpt>
      <trkpt lat="43.52619" lon="5.88427">
        <ele>469</ele>
        <time>2016-05-15T05:39:28Z</time>
      </trkpt>
      <trkpt lat="43.52638" lon="5.88419">
        <ele>469</ele>
        <time>2016-05-15T05:39:36Z</time>
      </trkpt>
      <trkpt lat="43.52656" lon="5.88413">
        <ele>470</ele>
        <time>2016-05-15T05:39:43Z</time>
      </trkpt>
      <trkpt lat="43.52673" lon="5.88405">
        <ele>471</ele>
        <time>2016-05-15T05:39:50Z</time>
      </trkpt>
      <trkpt lat="43.52691" lon="5.88395">
        <ele>472</ele>
        <time>2016-05-15T05:39:58Z</time>
      </trkpt>
      <trkpt lat="43.52708" lon="5.88385">
        <ele>472</ele>
        <time>2016-05-15T05:40:05Z</time>
      </trkpt>
      <trkpt lat="43.52724" lon="5.88372">
        <ele>472</ele>
        <time>2016-05-15T05:40:12Z</time>
      </trkpt>
      <trkpt lat="43.52736" lon="5.88353">
        <ele>473</ele>
        <time>2016-05-15T05:40:19Z</time>
      </trkpt>
      <trkpt lat="43.52749" lon="5.88335">
        <ele>475</ele>
        <time>2016-05-15T05:40:26Z</time>
      </trkpt>
      <trkpt lat="43.52762" lon="5.88317">
        <ele>476</ele>
        <time>2016-05-15T05:40:33Z</time>
      </trkpt>
      <trkpt lat="43.52775" lon="5.88299">
        <ele>476</ele>
        <time>2016-05-15T05:40:40Z</time>
      </trkpt>
      <trkpt lat="43.52787" lon="5.8828">
        <ele>476</ele>
        <time>2016-05-15T05:40:47Z</time>
      </trkpt>
      <trkpt lat="43.528" lon="5.88262">
        <ele>476</ele>
        <time>2016-05-15T05:40:54Z</time>
      </trkpt>
      <trkpt lat="43.52816" lon="5.88244">
        <ele>478</ele>
        <time>2016-05-15T05:41:01Z</time>
      </trkpt>
      <trkpt lat="43.52831" lon="5.88227">
        <ele>478</ele>
        <time>2016-05-15T05:41:07Z</time>
      </trkpt>
      <trkpt lat="43.52837" lon="5.88201">
        <ele>475</ele>
        <time>2016-05-15T05:41:14Z</time>
      </trkpt>
      <trkpt lat="43.52834" lon="5.88175">
        <ele>477</ele>
        <time>2016-05-15T05:41:22Z</time>
      </trkpt>
      <trkpt lat="43.52834" lon="5.88149">
        <ele>477</ele>
        <time>2016-05-15T05:41:29Z</time>
      </trkpt>
      <trkpt lat="43.52836" lon="5.88124">
        <ele>476</ele>
        <time>2016-05-15T05:41:36Z</time>
      </trkpt>
      <trkpt lat="43.52845" lon="5.88098">
        <ele>477</ele>
        <time>2016-05-15T05:41:43Z</time>
      </trkpt>
      <trkpt lat="43.52856" lon="5.88078">
        <ele>479</ele>
        <time>2016-05-15T05:41:49Z</time>
      </trkpt>
      <trkpt lat="43.52868" lon="5.88059">
        <ele>479</ele>
        <time>2016-05-15T05:41:56Z</time>
      </trkpt>
      <trkpt lat="43.52881" lon="5.88042">
        <ele>479</ele>
        <time>2016-05-15T05:42:03Z</time>
      </trkpt>
      <trkpt lat="43.52894" lon="5.88023">
        <ele>480</ele>
        <time>2016-05-15T05:42:10Z</time>
      </trkpt>
      <trkpt lat="43.52907" lon="5.88005">
        <ele>481</ele>
        <time>2016-05-15T05:42:17Z</time>
      </trkpt>
      <trkpt lat="43.52923" lon="5.87987">
        <ele>482</ele>
        <time>2016-05-15T05:42:25Z</time>
      </trkpt>
      <trkpt lat="43.52936" lon="5.8797">
        <ele>482</ele>
        <time>2016-05-15T05:42:32Z</time>
      </trkpt>
      <trkpt lat="43.5295" lon="5.87953">
        <ele>483</ele>
        <time>2016-05-15T05:42:40Z</time>
      </trkpt>
      <trkpt lat="43.52964" lon="5.87936">
        <ele>483</ele>
        <time>2016-05-15T05:42:48Z</time>
      </trkpt>
      <trkpt lat="43.52978" lon="5.8792">
        <ele>484</ele>
        <time>2016-05-15T05:42:55Z</time>
      </trkpt>
      <trkpt lat="43.52992" lon="5.87903">
        <ele>488</ele>
        <time>2016-05-15T05:43:03Z</time>
      </trkpt>
      <trkpt lat="43.53007" lon="5.87885">
        <ele>487</ele>
        <time>2016-05-15T05:43:11Z</time>
      </trkpt>
      <trkpt lat="43.53021" lon="5.87868">
        <ele>488</ele>
        <time>2016-05-15T05:43:19Z</time>
      </trkpt>
      <trkpt lat="43.53035" lon="5.87849">
        <ele>488</ele>
        <time>2016-05-15T05:43:27Z</time>
      </trkpt>
      <trkpt lat="43.53048" lon="5.87831">
        <ele>492</ele>
        <time>2016-05-15T05:43:35Z</time>
      </trkpt>
      <trkpt lat="43.53064" lon="5.87818">
        <ele>491</ele>
        <time>2016-05-15T05:43:42Z</time>
      </trkpt>
      <trkpt lat="43.53077" lon="5.87799">
        <ele>492</ele>
        <time>2016-05-15T05:43:50Z</time>
      </trkpt>
      <trkpt lat="43.53082" lon="5.87772">
        <ele>493</ele>
        <time>2016-05-15T05:44:00Z</time>
      </trkpt>
      <trkpt lat="43.53084" lon="5.87746">
        <ele>493</ele>
        <time>2016-05-15T05:44:09Z</time>
      </trkpt>
      <trkpt lat="43.53087" lon="5.8772">
        <ele>492</ele>
        <time>2016-05-15T05:44:17Z</time>
      </trkpt>
      <trkpt lat="43.53092" lon="5.87693">
        <ele>492</ele>
        <time>2016-05-15T05:44:25Z</time>
      </trkpt>
      <trkpt lat="43.53089" lon="5.87666">
        <ele>494</ele>
        <time>2016-05-15T05:44:33Z</time>
      </trkpt>
      <trkpt lat="43.53087" lon="5.8764">
        <ele>493</ele>
        <time>2016-05-15T05:44:40Z</time>
      </trkpt>
      <trkpt lat="43.53085" lon="5.87612">
        <ele>493</ele>
        <time>2016-05-15T05:44:47Z</time>
      </trkpt>
      <trkpt lat="43.53083" lon="5.87587">
        <ele>496</ele>
        <time>2016-05-15T05:44:52Z</time>
      </trkpt>
      <trkpt lat="43.53082" lon="5.87559">
        <ele>496</ele>
        <time>2016-05-15T05:44:58Z</time>
      </trkpt>
      <trkpt lat="43.5308" lon="5.87532">
        <ele>496</ele>
        <time>2016-05-15T05:45:03Z</time>
      </trkpt>
      <trkpt lat="43.53077" lon="5.87506">
        <ele>495</ele>
        <time>2016-05-15T05:45:08Z</time>
      </trkpt>
      <trkpt lat="43.53071" lon="5.87479">
        <ele>496</ele>
        <time>2016-05-15T05:45:14Z</time>
      </trkpt>
      <trkpt lat="43.53068" lon="5.87454">
        <ele>496</ele>
        <time>2016-05-15T05:45:19Z</time>
      </trkpt>
      <trkpt lat="43.53068" lon="5.87429">
        <ele>497</ele>
        <time>2016-05-15T05:45:24Z</time>
      </trkpt>
      <trkpt lat="43.53067" lon="5.87401">
        <ele>497</ele>
        <time>2016-05-15T05:45:29Z</time>
      </trkpt>
      <trkpt lat="43.53069" lon="5.87374">
        <ele>498</ele>
        <time>2016-05-15T05:45:34Z</time>
      </trkpt>
      <trkpt lat="43.53075" lon="5.87348">
        <ele>498</ele>
        <time>2016-05-15T05:45:39Z</time>
      </trkpt>
      <trkpt lat="43.53085" lon="5.87326">
        <ele>498</ele>
        <time>2016-05-15T05:45:44Z</time>
      </trkpt>
      <trkpt lat="43.531" lon="5.87309">
        <ele>499</ele>
        <time>2016-05-15T05:45:49Z</time>
      </trkpt>
      <trkpt lat="43.53114" lon="5.87292">
        <ele>499</ele>
        <time>2016-05-15T05:45:54Z</time>
      </trkpt>
      <trkpt lat="43.53131" lon="5.87281">
        <ele>499</ele>
        <time>2016-05-15T05:45:59Z</time>
      </trkpt>
      <trkpt lat="43.53145" lon="5.87265">
        <ele>500</ele>
        <time>2016-05-15T05:46:26Z</time>
      </trkpt>
      <trkpt lat="43.53161" lon="5.87251">
        <ele>501</ele>
        <time>2016-05-15T05:46:38Z</time>
      </trkpt>
      <trkpt lat="43.53175" lon="5.87235">
        <ele>501</ele>
        <time>2016-05-15T05:46:48Z</time>
      </trkpt>
      <trkpt lat="43.53191" lon="5.87218">
        <ele>501</ele>
        <time>2016-05-15T05:46:58Z</time>
      </trkpt>
      <trkpt lat="43.53206" lon="5.87204">
        <ele>501</ele>
        <time>2016-05-15T05:47:06Z</time>
      </trkpt>
      <trkpt lat="43.5322" lon="5.87185">
        <ele>501</ele>
        <time>2016-05-15T05:47:15Z</time>
      </trkpt>
      <trkpt lat="43.53236" lon="5.8717">
        <ele>501</ele>
        <time>2016-05-15T05:47:23Z</time>
      </trkpt>
      <trkpt lat="43.53253" lon="5.87157">
        <ele>502</ele>
        <time>2016-05-15T05:47:31Z</time>
      </trkpt>
      <trkpt lat="43.53269" lon="5.87144">
        <ele>502</ele>
        <time>2016-05-15T05:47:39Z</time>
      </trkpt>
      <trkpt lat="43.53287" lon="5.87137">
        <ele>503</ele>
        <time>2016-05-15T05:47:47Z</time>
      </trkpt>
      <trkpt lat="43.53305" lon="5.87132">
        <ele>503</ele>
        <time>2016-05-15T05:47:55Z</time>
      </trkpt>
      <trkpt lat="43.53323" lon="5.87127">
        <ele>504</ele>
        <time>2016-05-15T05:48:03Z</time>
      </trkpt>
      <trkpt lat="43.53342" lon="5.87124">
        <ele>506</ele>
        <time>2016-05-15T05:48:11Z</time>
      </trkpt>
      <trkpt lat="43.53362" lon="5.87119">
        <ele>507</ele>
        <time>2016-05-15T05:48:19Z</time>
      </trkpt>
      <trkpt lat="43.53381" lon="5.87111">
        <ele>507</ele>
        <time>2016-05-15T05:48:27Z</time>
      </trkpt>
      <trkpt lat="43.534" lon="5.87105">
        <ele>507</ele>
        <time>2016-05-15T05:48:35Z</time>
      </trkpt>
      <trkpt lat="43.5342" lon="5.87104">
        <ele>510</ele>
        <time>2016-05-15T05:48:44Z</time>
      </trkpt>
      <trkpt lat="43.53439" lon="5.87109">
        <ele>510</ele>
        <time>2016-05-15T05:49:33Z</time>
      </trkpt>
      <trkpt lat="43.53457" lon="5.87117">
        <ele>511</ele>
        <time>2016-05-15T05:49:44Z</time>
      </trkpt>
      <trkpt lat="43.53474" lon="5.87128">
        <ele>511</ele>
        <time>2016-05-15T05:49:53Z</time>
      </trkpt>
      <trkpt lat="43.53494" lon="5.87126">
        <ele>512</ele>
        <time>2016-05-15T05:50:04Z</time>
      </trkpt>
      <trkpt lat="43.53509" lon="5.87139">
        <ele>514</ele>
        <time>2016-05-15T05:50:13Z</time>
      </trkpt>
      <trkpt lat="43.53518" lon="5.87165">
        <ele>514</ele>
        <time>2016-05-15T05:50:22Z</time>
      </trkpt>
      <trkpt lat="43.53524" lon="5.87188">
        <ele>516</ele>
        <time>2016-05-15T05:50:29Z</time>
      </trkpt>
      <trkpt lat="43.53527" lon="5.87213">
        <ele>516</ele>
        <time>2016-05-15T05:50:36Z</time>
      </trkpt>
      <trkpt lat="43.53528" lon="5.87239">
        <ele>517</ele>
        <time>2016-05-15T05:50:44Z</time>
      </trkpt>
      <trkpt lat="43.53532" lon="5.87265">
        <ele>518</ele>
        <time>2016-05-15T05:50:52Z</time>
      </trkpt>
      <trkpt lat="43.53549" lon="5.87278">
        <ele>518</ele>
        <time>2016-05-15T05:51:00Z</time>
      </trkpt>
      <trkpt lat="43.53569" lon="5.87282">
        <ele>518</ele>
        <time>2016-05-15T05:51:07Z</time>
      </trkpt>
      <trkpt lat="43.53589" lon="5.87284">
        <ele>517</ele>
        <time>2016-05-15T05:51:14Z</time>
      </trkpt>
      <trkpt lat="43.53607" lon="5.87289">
        <ele>517</ele>
        <time>2016-05-15T05:51:20Z</time>
      </trkpt>
      <trkpt lat="43.53627" lon="5.87293">
        <ele>516</ele>
        <time>2016-05-15T05:51:26Z</time>
      </trkpt>
      <trkpt lat="43.53647" lon="5.87288">
        <ele>516</ele>
        <time>2016-05-15T05:51:31Z</time>
      </trkpt>
      <trkpt lat="43.53665" lon="5.87281">
        <ele>516</ele>
        <time>2016-05-15T05:51:35Z</time>
      </trkpt>
      <trkpt lat="43.53683" lon="5.87274">
        <ele>513</ele>
        <time>2016-05-15T05:51:39Z</time>
      </trkpt>
      <trkpt lat="43.53703" lon="5.8727">
        <ele>512</ele>
        <time>2016-05-15T05:51:43Z</time>
      </trkpt>
      <trkpt lat="43.53724" lon="5.87271">
        <ele>511</ele>
        <time>2016-05-15T05:51:47Z</time>
      </trkpt>
      <trkpt lat="43.53744" lon="5.8728">
        <ele>510</ele>
        <time>2016-05-15T05:51:51Z</time>
      </trkpt>
      <trkpt lat="43.53762" lon="5.87292">
        <ele>507</ele>
        <time>2016-05-15T05:51:55Z</time>
      </trkpt>
      <trkpt lat="43.5378" lon="5.87305">
        <ele>507</ele>
        <time>2016-05-15T05:51:59Z</time>
      </trkpt>
      <trkpt lat="43.53795" lon="5.87323">
        <ele>507</ele>
        <time>2016-05-15T05:52:03Z</time>
      </trkpt>
      <trkpt lat="43.5381" lon="5.87342">
        <ele>507</ele>
        <time>2016-05-15T05:52:07Z</time>
      </trkpt>
      <trkpt lat="43.53829" lon="5.87354">
        <ele>506</ele>
        <time>2016-05-15T05:52:11Z</time>
      </trkpt>
      <trkpt lat="43.5385" lon="5.8736">
        <ele>503</ele>
        <time>2016-05-15T05:52:15Z</time>
      </trkpt>
      <trkpt lat="43.53874" lon="5.87364">
        <ele>503</ele>
        <time>2016-05-15T05:52:19Z</time>
      </trkpt>
      <trkpt lat="43.53896" lon="5.87366">
        <ele>502</ele>
        <time>2016-05-15T05:52:23Z</time>
      </trkpt>
      <trkpt lat="43.53916" lon="5.87367">
        <ele>502</ele>
        <time>2016-05-15T05:52:27Z</time>
      </trkpt>
      <trkpt lat="43.53935" lon="5.87366">
        <ele>500</ele>
        <time>2016-05-15T05:52:31Z</time>
      </trkpt>
      <trkpt lat="43.53954" lon="5.87356">
        <ele>500</ele>
        <time>2016-05-15T05:52:36Z</time>
      </trkpt>
      <trkpt lat="43.53971" lon="5.87342">
        <ele>500</ele>
        <time>2016-05-15T05:52:41Z</time>
      </trkpt>
      <trkpt lat="43.53984" lon="5.87325">
        <ele>502</ele>
        <time>2016-05-15T05:52:47Z</time>
      </trkpt>
      <trkpt lat="43.53995" lon="5.87305">
        <ele>502</ele>
        <time>2016-05-15T05:52:55Z</time>
      </trkpt>
      <trkpt lat="43.54003" lon="5.87283">
        <ele>502</ele>
        <time>2016-05-15T05:53:05Z</time>
      </trkpt>
      <trkpt lat="43.5401" lon="5.87257">
        <ele>503</ele>
        <time>2016-05-15T05:58:08Z</time>
      </trkpt>
      <trkpt lat="43.54019" lon="5.87231">
        <ele>503</ele>
        <time>2016-05-15T05:58:15Z</time>
      </trkpt>
      <trkpt lat="43.54026" lon="5.87208">
        <ele>502</ele>
        <time>2016-05-15T05:58:21Z</time>
      </trkpt>
      <trkpt lat="43.54035" lon="5.87184">
        <ele>502</ele>
        <time>2016-05-15T05:58:27Z</time>
      </trkpt>
      <trkpt lat="43.54046" lon="5.8716">
        <ele>502</ele>
        <time>2016-05-15T05:58:33Z</time>
      </trkpt>
      <trkpt lat="43.54057" lon="5.8714">
        <ele>502</ele>
        <time>2016-05-15T05:58:38Z</time>
      </trkpt>
      <trkpt lat="43.54067" lon="5.87117">
        <ele>502</ele>
        <time>2016-05-15T05:58:44Z</time>
      </trkpt>
      <trkpt lat="43.5408" lon="5.87094">
        <ele>502</ele>
        <time>2016-05-15T05:58:50Z</time>
      </trkpt>
      <trkpt lat="43.54095" lon="5.87075">
        <ele>502</ele>
        <time>2016-05-15T05:58:56Z</time>
      </trkpt>
      <trkpt lat="43.54108" lon="5.87058">
        <ele>502</ele>
        <time>2016-05-15T05:59:01Z</time>
      </trkpt>
      <trkpt lat="43.54121" lon="5.8704">
        <ele>502</ele>
        <time>2016-05-15T05:59:06Z</time>
      </trkpt>
      <trkpt lat="43.54136" lon="5.87022">
        <ele>502</ele>
        <time>2016-05-15T05:59:11Z</time>
      </trkpt>
      <trkpt lat="43.5415" lon="5.87004">
        <ele>502</ele>
        <time>2016-05-15T05:59:16Z</time>
      </trkpt>
      <trkpt lat="43.54163" lon="5.86985">
        <ele>501</ele>
        <time>2016-05-15T05:59:21Z</time>
      </trkpt>
      <trkpt lat="43.54178" lon="5.86966">
        <ele>501</ele>
        <time>2016-05-15T05:59:26Z</time>
      </trkpt>
      <trkpt lat="43.54191" lon="5.86949">
        <ele>501</ele>
        <time>2016-05-15T05:59:31Z</time>
      </trkpt>
      <trkpt lat="43.54205" lon="5.86931">
        <ele>501</ele>
        <time>2016-05-15T05:59:36Z</time>
      </trkpt>
      <trkpt lat="43.5422" lon="5.86914">
        <ele>500</ele>
        <time>2016-05-15T05:59:41Z</time>
      </trkpt>
      <trkpt lat="43.54232" lon="5.86894">
        <ele>500</ele>
        <time>2016-05-15T05:59:46Z</time>
      </trkpt>
      <trkpt lat="43.54237" lon="5.8687">
        <ele>500</ele>
        <time>2016-05-15T05:59:51Z</time>
      </trkpt>
      <trkpt lat="43.54239" lon="5.86844">
        <ele>500</ele>
        <time>2016-05-15T05:59:56Z</time>
      </trkpt>
      <trkpt lat="43.54243" lon="5.86817">
        <ele>500</ele>
        <time>2016-05-15T06:00:01Z</time>
      </trkpt>
      <trkpt lat="43.54247" lon="5.8679">
        <ele>500</ele>
        <time>2016-05-15T06:00:06Z</time>
      </trkpt>
      <trkpt lat="43.54253" lon="5.86762">
        <ele>501</ele>
        <time>2016-05-15T06:00:11Z</time>
      </trkpt>
      <trkpt lat="43.54258" lon="5.86734">
        <ele>501</ele>
        <time>2016-05-15T06:00:16Z</time>
      </trkpt>
      <trkpt lat="43.54263" lon="5.86709">
        <ele>501</ele>
        <time>2016-05-15T06:00:21Z</time>
      </trkpt>
      <trkpt lat="43.54269" lon="5.86684">
        <ele>501</ele>
        <time>2016-05-15T06:00:26Z</time>
      </trkpt>
      <trkpt lat="43.54275" lon="5.8666">
        <ele>501</ele>
        <time>2016-05-15T06:00:31Z</time>
      </trkpt>
      <trkpt lat="43.54278" lon="5.86631">
        <ele>501</ele>
        <time>2016-05-15T06:00:37Z</time>
      </trkpt>
      <trkpt lat="43.54279" lon="5.86606">
        <ele>502</ele>
        <time>2016-05-15T06:00:42Z</time>
      </trkpt>
      <trkpt lat="43.54286" lon="5.86582">
        <ele>502</ele>
        <time>2016-05-15T06:00:47Z</time>
      </trkpt>
      <trkpt lat="43.5429" lon="5.86557">
        <ele>502</ele>
        <time>2016-05-15T06:00:52Z</time>
      </trkpt>
      <trkpt lat="43.54297" lon="5.86531">
        <ele>502</ele>
        <time>2016-05-15T06:00:57Z</time>
      </trkpt>
      <trkpt lat="43.54304" lon="5.86502">
        <ele>502</ele>
        <time>2016-05-15T06:01:03Z</time>
      </trkpt>
      <trkpt lat="43.5431" lon="5.86474">
        <ele>502</ele>
        <time>2016-05-15T06:01:09Z</time>
      </trkpt>
      <trkpt lat="43.54315" lon="5.86449">
        <ele>502</ele>
        <time>2016-05-15T06:01:14Z</time>
      </trkpt>
      <trkpt lat="43.54319" lon="5.86421">
        <ele>502</ele>
        <time>2016-05-15T06:01:20Z</time>
      </trkpt>
      <trkpt lat="43.54326" lon="5.86392">
        <ele>502</ele>
        <time>2016-05-15T06:01:26Z</time>
      </trkpt>
      <trkpt lat="43.54331" lon="5.86368">
        <ele>502</ele>
        <time>2016-05-15T06:01:31Z</time>
      </trkpt>
      <trkpt lat="43.54337" lon="5.8634">
        <ele>503</ele>
        <time>2016-05-15T06:01:37Z</time>
      </trkpt>
      <trkpt lat="43.54343" lon="5.86312">
        <ele>503</ele>
        <time>2016-05-15T06:01:43Z</time>
      </trkpt>
      <trkpt lat="43.54349" lon="5.86284">
        <ele>502</ele>
        <time>2016-05-15T06:01:49Z</time>
      </trkpt>
      <trkpt lat="43.54352" lon="5.86255">
        <ele>502</ele>
        <time>2016-05-15T06:01:55Z</time>
      </trkpt>
      <trkpt lat="43.54355" lon="5.8623">
        <ele>502</ele>
        <time>2016-05-15T06:02:00Z</time>
      </trkpt>
      <trkpt lat="43.5436" lon="5.86205">
        <ele>503</ele>
        <time>2016-05-15T06:02:05Z</time>
      </trkpt>
      <trkpt lat="43.54366" lon="5.86181">
        <ele>503</ele>
        <time>2016-05-15T06:02:10Z</time>
      </trkpt>
      <trkpt lat="43.54374" lon="5.86157">
        <ele>503</ele>
        <time>2016-05-15T06:02:15Z</time>
      </trkpt>
      <trkpt lat="43.54381" lon="5.86131">
        <ele>503</ele>
        <time>2016-05-15T06:02:21Z</time>
      </trkpt>
      <trkpt lat="43.54388" lon="5.86107">
        <ele>503</ele>
        <time>2016-05-15T06:02:27Z</time>
      </trkpt>
      <trkpt lat="43.54393" lon="5.8608">
        <ele>503</ele>
        <time>2016-05-15T06:02:33Z</time>
      </trkpt>
      <trkpt lat="43.54395" lon="5.86053">
        <ele>503</ele>
        <time>2016-05-15T06:02:39Z</time>
      </trkpt>
      <trkpt lat="43.54395" lon="5.86026">
        <ele>503</ele>
        <time>2016-05-15T06:02:45Z</time>
      </trkpt>
      <trkpt lat="43.54396" lon="5.85998">
        <ele>503</ele>
        <time>2016-05-15T06:02:51Z</time>
      </trkpt>
      <trkpt lat="43.54401" lon="5.85971">
        <ele>502</ele>
        <time>2016-05-15T06:02:57Z</time>
      </trkpt>
      <trkpt lat="43.54404" lon="5.85946">
        <ele>502</ele>
        <time>2016-05-15T06:03:03Z</time>
      </trkpt>
      <trkpt lat="43.54411" lon="5.85921">
        <ele>502</ele>
        <time>2016-05-15T06:03:09Z</time>
      </trkpt>
      <trkpt lat="43.54425" lon="5.85902">
        <ele>502</ele>
        <time>2016-05-15T06:03:15Z</time>
      </trkpt>
      <trkpt lat="43.54439" lon="5.85886">
        <ele>501</ele>
        <time>2016-05-15T06:03:21Z</time>
      </trkpt>
      <trkpt lat="43.54455" lon="5.85871">
        <ele>501</ele>
        <time>2016-05-15T06:03:27Z</time>
      </trkpt>
      <trkpt lat="43.54472" lon="5.85859">
        <ele>501</ele>
        <time>2016-05-15T06:03:33Z</time>
      </trkpt>
      <trkpt lat="43.54491" lon="5.85853">
        <ele>501</ele>
        <time>2016-05-15T06:03:39Z</time>
      </trkpt>
      <trkpt lat="43.54511" lon="5.8585">
        <ele>502</ele>
        <time>2016-05-15T06:03:46Z</time>
      </trkpt>
      <trkpt lat="43.5453" lon="5.85848">
        <ele>503</ele>
        <time>2016-05-15T06:03:52Z</time>
      </trkpt>
      <trkpt lat="43.54546" lon="5.85835">
        <ele>503</ele>
        <time>2016-05-15T06:03:58Z</time>
      </trkpt>
      <trkpt lat="43.54538" lon="5.85809">
        <ele>501</ele>
        <time>2016-05-15T06:04:04Z</time>
      </trkpt>
      <trkpt lat="43.54527" lon="5.85787">
        <ele>500</ele>
        <time>2016-05-15T06:04:09Z</time>
      </trkpt>
      <trkpt lat="43.54515" lon="5.85764">
        <ele>498</ele>
        <time>2016-05-15T06:04:14Z</time>
      </trkpt>
      <trkpt lat="43.54505" lon="5.85738">
        <ele>497</ele>
        <time>2016-05-15T06:04:20Z</time>
      </trkpt>
      <trkpt lat="43.54517" lon="5.85715">
        <ele>498</ele>
        <time>2016-05-15T06:04:26Z</time>
      </trkpt>
      <trkpt lat="43.54531" lon="5.85695">
        <ele>498</ele>
        <time>2016-05-15T06:04:32Z</time>
      </trkpt>
      <trkpt lat="43.54543" lon="5.85673">
        <ele>498</ele>
        <time>2016-05-15T06:04:38Z</time>
      </trkpt>
      <trkpt lat="43.54554" lon="5.85653">
        <ele>498</ele>
        <time>2016-05-15T06:04:44Z</time>
      </trkpt>
      <trkpt lat="43.54568" lon="5.85634">
        <ele>498</ele>
        <time>2016-05-15T06:04:50Z</time>
      </trkpt>
      <trkpt lat="43.54575" lon="5.85611">
        <ele>498</ele>
        <time>2016-05-15T06:04:56Z</time>
      </trkpt>
      <trkpt lat="43.5458" lon="5.85585">
        <ele>497</ele>
        <time>2016-05-15T06:05:02Z</time>
      </trkpt>
      <trkpt lat="43.54585" lon="5.85557">
        <ele>499</ele>
        <time>2016-05-15T06:05:08Z</time>
      </trkpt>
      <trkpt lat="43.54593" lon="5.85531">
        <ele>499</ele>
        <time>2016-05-15T06:05:14Z</time>
      </trkpt>
      <trkpt lat="43.54603" lon="5.8551">
        <ele>500</ele>
        <time>2016-05-15T06:05:19Z</time>
      </trkpt>
      <trkpt lat="43.54614" lon="5.85491">
        <ele>501</ele>
        <time>2016-05-15T06:05:24Z</time>
      </trkpt>
      <trkpt lat="43.54628" lon="5.85473">
        <ele>501</ele>
        <time>2016-05-15T06:05:30Z</time>
      </trkpt>
      <trkpt lat="43.54644" lon="5.85458">
        <ele>501</ele>
        <time>2016-05-15T06:05:36Z</time>
      </trkpt>
      <trkpt lat="43.54661" lon="5.85445">
        <ele>502</ele>
        <time>2016-05-15T06:05:42Z</time>
      </trkpt>
      <trkpt lat="43.54677" lon="5.85426">
        <ele>502</ele>
        <time>2016-05-15T06:05:48Z</time>
      </trkpt>
      <trkpt lat="43.54692" lon="5.85408">
        <ele>503</ele>
        <time>2016-05-15T06:05:54Z</time>
      </trkpt>
      <trkpt lat="43.54707" lon="5.85387">
        <ele>503</ele>
        <time>2016-05-15T06:06:01Z</time>
      </trkpt>
      <trkpt lat="43.54719" lon="5.85367">
        <ele>503</ele>
        <time>2016-05-15T06:06:07Z</time>
      </trkpt>
      <trkpt lat="43.54729" lon="5.85346">
        <ele>503</ele>
        <time>2016-05-15T06:06:13Z</time>
      </trkpt>
      <trkpt lat="43.54734" lon="5.85321">
        <ele>504</ele>
        <time>2016-05-15T06:06:19Z</time>
      </trkpt>
      <trkpt lat="43.54736" lon="5.85293">
        <ele>504</ele>
        <time>2016-05-15T06:06:25Z</time>
      </trkpt>
      <trkpt lat="43.54743" lon="5.85268">
        <ele>504</ele>
        <time>2016-05-15T06:06:31Z</time>
      </trkpt>
      <trkpt lat="43.54749" lon="5.85244">
        <ele>505</ele>
        <time>2016-05-15T06:06:37Z</time>
      </trkpt>
      <trkpt lat="43.54757" lon="5.85221">
        <ele>506</ele>
        <time>2016-05-15T06:06:43Z</time>
      </trkpt>
      <trkpt lat="43.54766" lon="5.85195">
        <ele>506</ele>
        <time>2016-05-15T06:06:49Z</time>
      </trkpt>
      <trkpt lat="43.54773" lon="5.8517">
        <ele>506</ele>
        <time>2016-05-15T06:06:55Z</time>
      </trkpt>
      <trkpt lat="43.5478" lon="5.85147">
        <ele>507</ele>
        <time>2016-05-15T06:07:01Z</time>
      </trkpt>
      <trkpt lat="43.54788" lon="5.85123">
        <ele>508</ele>
        <time>2016-05-15T06:07:07Z</time>
      </trkpt>
      <trkpt lat="43.54796" lon="5.85098">
        <ele>508</ele>
        <time>2016-05-15T06:07:13Z</time>
      </trkpt>
      <trkpt lat="43.54802" lon="5.85073">
        <ele>508</ele>
        <time>2016-05-15T06:07:19Z</time>
      </trkpt>
      <trkpt lat="43.54803" lon="5.85044">
        <ele>508</ele>
        <time>2016-05-15T06:07:25Z</time>
      </trkpt>
      <trkpt lat="43.54802" lon="5.85016">
        <ele>508</ele>
        <time>2016-05-15T06:07:31Z</time>
      </trkpt>
      <trkpt lat="43.54803" lon="5.84987">
        <ele>508</ele>
        <time>2016-05-15T06:07:38Z</time>
      </trkpt>
      <trkpt lat="43.54811" lon="5.84962">
        <ele>508</ele>
        <time>2016-05-15T06:07:47Z</time>
      </trkpt>
      <trkpt lat="43.54827" lon="5.84947">
        <ele>508</ele>
        <time>2016-05-15T06:10:17Z</time>
      </trkpt>
      <trkpt lat="43.54845" lon="5.84946">
        <ele>508</ele>
        <time>2016-05-15T06:10:24Z</time>
      </trkpt>
      <trkpt lat="43.54865" lon="5.84946">
        <ele>508</ele>
        <time>2016-05-15T06:10:31Z</time>
      </trkpt>
      <trkpt lat="43.54884" lon="5.84946">
        <ele>508</ele>
        <time>2016-05-15T06:10:37Z</time>
      </trkpt>
      <trkpt lat="43.54903" lon="5.84946">
        <ele>509</ele>
        <time>2016-05-15T06:10:43Z</time>
      </trkpt>
      <trkpt lat="43.54923" lon="5.84946">
        <ele>510</ele>
        <time>2016-05-15T06:10:49Z</time>
      </trkpt>
      <trkpt lat="43.54941" lon="5.84944">
        <ele>511</ele>
        <time>2016-05-15T06:10:55Z</time>
      </trkpt>
      <trkpt lat="43.54962" lon="5.84944">
        <ele>511</ele>
        <time>2016-05-15T06:11:01Z</time>
      </trkpt>
      <trkpt lat="43.54983" lon="5.84942">
        <ele>511</ele>
        <time>2016-05-15T06:11:08Z</time>
      </trkpt>
      <trkpt lat="43.55001" lon="5.84941">
        <ele>513</ele>
        <time>2016-05-15T06:11:14Z</time>
      </trkpt>
      <trkpt lat="43.55021" lon="5.8494">
        <ele>514</ele>
        <time>2016-05-15T06:11:20Z</time>
      </trkpt>
      <trkpt lat="43.55043" lon="5.8494">
        <ele>514</ele>
        <time>2016-05-15T06:11:26Z</time>
      </trkpt>
      <trkpt lat="43.55062" lon="5.84939">
        <ele>515</ele>
        <time>2016-05-15T06:11:31Z</time>
      </trkpt>
      <trkpt lat="43.55082" lon="5.84938">
        <ele>515</ele>
        <time>2016-05-15T06:11:37Z</time>
      </trkpt>
      <trkpt lat="43.55102" lon="5.84937">
        <ele>516</ele>
        <time>2016-05-15T06:11:43Z</time>
      </trkpt>
      <trkpt lat="43.5512" lon="5.84937">
        <ele>516</ele>
        <time>2016-05-15T06:11:48Z</time>
      </trkpt>
      <trkpt lat="43.55139" lon="5.84936">
        <ele>517</ele>
        <time>2016-05-15T06:11:53Z</time>
      </trkpt>
      <trkpt lat="43.5516" lon="5.84936">
        <ele>517</ele>
        <time>2016-05-15T06:11:59Z</time>
      </trkpt>
      <trkpt lat="43.5518" lon="5.84935">
        <ele>517</ele>
        <time>2016-05-15T06:12:05Z</time>
      </trkpt>
      <trkpt lat="43.55201" lon="5.84935">
        <ele>518</ele>
        <time>2016-05-15T06:12:11Z</time>
      </trkpt>
      <trkpt lat="43.5522" lon="5.84934">
        <ele>518</ele>
        <time>2016-05-15T06:12:17Z</time>
      </trkpt>
      <trkpt lat="43.55235" lon="5.84954">
        <ele>518</ele>
        <time>2016-05-15T06:12:24Z</time>
      </trkpt>
      <trkpt lat="43.55246" lon="5.84978">
        <ele>518</ele>
        <time>2016-05-15T06:12:30Z</time>
      </trkpt>
      <trkpt lat="43.55255" lon="5.85004">
        <ele>518</ele>
        <time>2016-05-15T06:12:36Z</time>
      </trkpt>
      <trkpt lat="43.5526" lon="5.85032">
        <ele>517</ele>
        <time>2016-05-15T06:12:42Z</time>
      </trkpt>
      <trkpt lat="43.5526" lon="5.85057">
        <ele>518</ele>
        <time>2016-05-15T06:12:47Z</time>
      </trkpt>
      <trkpt lat="43.5526" lon="5.85082">
        <ele>518</ele>
        <time>2016-05-15T06:12:52Z</time>
      </trkpt>
      <trkpt lat="43.5527" lon="5.85108">
        <ele>519</ele>
        <time>2016-05-15T06:12:59Z</time>
      </trkpt>
      <trkpt lat="43.55276" lon="5.85133">
        <ele>519</ele>
        <time>2016-05-15T06:13:05Z</time>
      </trkpt>
      <trkpt lat="43.55268" lon="5.85158">
        <ele>519</ele>
        <time>2016-05-15T06:13:15Z</time>
      </trkpt>
      <trkpt lat="43.55256" lon="5.8518">
        <ele>520</ele>
        <time>2016-05-15T06:13:21Z</time>
      </trkpt>
      <trkpt lat="43.55249" lon="5.85206">
        <ele>518</ele>
        <time>2016-05-15T06:13:28Z</time>
      </trkpt>
      <trkpt lat="43.55247" lon="5.85236">
        <ele>519</ele>
        <time>2016-05-15T06:13:33Z</time>
      </trkpt>
      <trkpt lat="43.55254" lon="5.85265">
        <ele>522</ele>
        <time>2016-05-15T06:13:38Z</time>
      </trkpt>
      <trkpt lat="43.55267" lon="5.85286">
        <ele>523</ele>
        <time>2016-05-15T06:13:43Z</time>
      </trkpt>
      <trkpt lat="43.55274" lon="5.85313">
        <ele>524</ele>
        <time>2016-05-15T06:13:48Z</time>
      </trkpt>
      <trkpt lat="43.55274" lon="5.85341">
        <ele>525</ele>
        <time>2016-05-15T06:13:54Z</time>
      </trkpt>
      <trkpt lat="43.55269" lon="5.85365">
        <ele>526</ele>
        <time>2016-05-15T06:13:59Z</time>
      </trkpt>
      <trkpt lat="43.55268" lon="5.85393">
        <ele>526</ele>
        <time>2016-05-15T06:14:04Z</time>
      </trkpt>
      <trkpt lat="43.55253" lon="5.85416">
        <ele>525</ele>
        <time>2016-05-15T06:14:09Z</time>
      </trkpt>
      <trkpt lat="43.55245" lon="5.85441">
        <ele>524</ele>
        <time>2016-05-15T06:14:13Z</time>
      </trkpt>
      <trkpt lat="43.55241" lon="5.85472">
        <ele>524</ele>
        <time>2016-05-15T06:14:17Z</time>
      </trkpt>
      <trkpt lat="43.55237" lon="5.85496">
        <ele>525</ele>
        <time>2016-05-15T06:14:20Z</time>
      </trkpt>
      <trkpt lat="43.55234" lon="5.85526">
        <ele>526</ele>
        <time>2016-05-15T06:14:24Z</time>
      </trkpt>
      <trkpt lat="43.55223" lon="5.85552">
        <ele>526</ele>
        <time>2016-05-15T06:14:28Z</time>
      </trkpt>
      <trkpt lat="43.55208" lon="5.85576">
        <ele>525</ele>
        <time>2016-05-15T06:14:32Z</time>
      </trkpt>
      <trkpt lat="43.55197" lon="5.85604">
        <ele>527</ele>
        <time>2016-05-15T06:14:36Z</time>
      </trkpt>
      <trkpt lat="43.55198" lon="5.8563">
        <ele>528</ele>
        <time>2016-05-15T06:15:01Z</time>
      </trkpt>
      <trkpt lat="43.5519" lon="5.85655">
        <ele>528</ele>
        <time>2016-05-15T06:15:08Z</time>
      </trkpt>
      <trkpt lat="43.55178" lon="5.85678">
        <ele>529</ele>
        <time>2016-05-15T06:15:14Z</time>
      </trkpt>
      <trkpt lat="43.55172" lon="5.85702">
        <ele>530</ele>
        <time>2016-05-15T06:15:19Z</time>
      </trkpt>
      <trkpt lat="43.55161" lon="5.85723">
        <ele>527</ele>
        <time>2016-05-15T06:15:24Z</time>
      </trkpt>
      <trkpt lat="43.55151" lon="5.85745">
        <ele>528</ele>
        <time>2016-05-15T06:15:29Z</time>
      </trkpt>
      <trkpt lat="43.55143" lon="5.8577">
        <ele>528</ele>
        <time>2016-05-15T06:15:35Z</time>
      </trkpt>
      <trkpt lat="43.55131" lon="5.8579">
        <ele>527</ele>
        <time>2016-05-15T06:15:41Z</time>
      </trkpt>
      <trkpt lat="43.5512" lon="5.85811">
        <ele>527</ele>
        <time>2016-05-15T06:15:48Z</time>
      </trkpt>
      <trkpt lat="43.55112" lon="5.85837">
        <ele>526</ele>
        <time>2016-05-15T06:15:57Z</time>
      </trkpt>
      <trkpt lat="43.55102" lon="5.8586">
        <ele>526</ele>
        <time>2016-05-15T06:16:09Z</time>
      </trkpt>
      <trkpt lat="43.55102" lon="5.85887">
        <ele>526</ele>
        <time>2016-05-15T06:16:18Z</time>
      </trkpt>
      <trkpt lat="43.55099" lon="5.85914">
        <ele>525</ele>
        <time>2016-05-15T06:16:27Z</time>
      </trkpt>
      <trkpt lat="43.55093" lon="5.85939">
        <ele>524</ele>
        <time>2016-05-15T06:16:36Z</time>
      </trkpt>
      <trkpt lat="43.55086" lon="5.85964">
        <ele>523</ele>
        <time>2016-05-15T06:16:43Z</time>
      </trkpt>
      <trkpt lat="43.55081" lon="5.8599">
        <ele>522</ele>
        <time>2016-05-15T06:16:46Z</time>
      </trkpt>
      <trkpt lat="43.55071" lon="5.86012">
        <ele>521</ele>
        <time>2016-05-15T06:16:49Z</time>
      </trkpt>
      <trkpt lat="43.55072" lon="5.86043">
        <ele>520</ele>
        <time>2016-05-15T06:16:53Z</time>
      </trkpt>
      <trkpt lat="43.55076" lon="5.86068">
        <ele>519</ele>
        <time>2016-05-15T06:16:56Z</time>
      </trkpt>
      <trkpt lat="43.55076" lon="5.86097">
        <ele>517</ele>
        <time>2016-05-15T06:16:59Z</time>
      </trkpt>
      <trkpt lat="43.55075" lon="5.86125">
        <ele>516</ele>
        <time>2016-05-15T06:17:02Z</time>
      </trkpt>
      <trkpt lat="43.55079" lon="5.86153">
        <ele>515</ele>
        <time>2016-05-15T06:17:06Z</time>
      </trkpt>
      <trkpt lat="43.55083" lon="5.86183">
        <ele>513</ele>
        <time>2016-05-15T06:17:11Z</time>
      </trkpt>
      <trkpt lat="43.55077" lon="5.86206">
        <ele>513</ele>
        <time>2016-05-15T06:17:15Z</time>
      </trkpt>
      <trkpt lat="43.5507" lon="5.8623">
        <ele>512</ele>
        <time>2016-05-15T06:17:19Z</time>
      </trkpt>
      <trkpt lat="43.55063" lon="5.86258">
        <ele>508</ele>
        <time>2016-05-15T06:17:23Z</time>
      </trkpt>
      <trkpt lat="43.55052" lon="5.86284">
        <ele>508</ele>
        <time>2016-05-15T06:17:27Z</time>
      </trkpt>
      <trkpt lat="43.5504" lon="5.86309">
        <ele>507</ele>
        <time>2016-05-15T06:17:31Z</time>
      </trkpt>
      <trkpt lat="43.55057" lon="5.8632">
        <ele>506</ele>
        <time>2016-05-15T06:18:29Z</time>
      </trkpt>
      <trkpt lat="43.55073" lon="5.86308">
        <ele>505</ele>
        <time>2016-05-15T06:18:33Z</time>
      </trkpt>
      <trkpt lat="43.5509" lon="5.86295">
        <ele>501</ele>
        <time>2016-05-15T06:18:37Z</time>
      </trkpt>
      <trkpt lat="43.55108" lon="5.86284">
        <ele>501</ele>
        <time>2016-05-15T06:18:41Z</time>
      </trkpt>
      <trkpt lat="43.55124" lon="5.86266">
        <ele>500</ele>
        <time>2016-05-15T06:18:45Z</time>
      </trkpt>
      <trkpt lat="43.55128" lon="5.86237">
        <ele>505</ele>
        <time>2016-05-15T06:18:49Z</time>
      </trkpt>
      <trkpt lat="43.55134" lon="5.86207">
        <ele>506</ele>
        <time>2016-05-15T06:18:53Z</time>
      </trkpt>
      <trkpt lat="43.55141" lon="5.86181">
        <ele>507</ele>
        <time>2016-05-15T06:18:57Z</time>
      </trkpt>
      <trkpt lat="43.55163" lon="5.86187">
        <ele>506</ele>
        <time>2016-05-15T06:19:03Z</time>
      </trkpt>
      <trkpt lat="43.55177" lon="5.86209">
        <ele>502</ele>
        <time>2016-05-15T06:19:07Z</time>
      </trkpt>
      <trkpt lat="43.55192" lon="5.8623">
        <ele>501</ele>
        <time>2016-05-15T06:19:11Z</time>
      </trkpt>
      <trkpt lat="43.55207" lon="5.86252">
        <ele>494</ele>
        <time>2016-05-15T06:19:16Z</time>
      </trkpt>
      <trkpt lat="43.55219" lon="5.86272">
        <ele>493</ele>
        <time>2016-05-15T06:19:22Z</time>
      </trkpt>
      <trkpt lat="43.55232" lon="5.8629">
        <ele>492</ele>
        <time>2016-05-15T06:19:28Z</time>
      </trkpt>
      <trkpt lat="43.55241" lon="5.86313">
        <ele>489</ele>
        <time>2016-05-15T06:19:51Z</time>
      </trkpt>
      <trkpt lat="43.55228" lon="5.8633">
        <ele>489</ele>
        <time>2016-05-15T06:20:35Z</time>
      </trkpt>
      <trkpt lat="43.55209" lon="5.86331">
        <ele>491</ele>
        <time>2016-05-15T06:20:44Z</time>
      </trkpt>
      <trkpt lat="43.55199" lon="5.86354">
        <ele>486</ele>
        <time>2016-05-15T06:20:50Z</time>
      </trkpt>
      <trkpt lat="43.55193" lon="5.8638">
        <ele>485</ele>
        <time>2016-05-15T06:20:54Z</time>
      </trkpt>
      <trkpt lat="43.55184" lon="5.86403">
        <ele>484</ele>
        <time>2016-05-15T06:20:58Z</time>
      </trkpt>
      <trkpt lat="43.55171" lon="5.86422">
        <ele>482</ele>
        <time>2016-05-15T06:21:02Z</time>
      </trkpt>
      <trkpt lat="43.55156" lon="5.86441">
        <ele>483</ele>
        <time>2016-05-15T06:21:07Z</time>
      </trkpt>
      <trkpt lat="43.55139" lon="5.86458">
        <ele>483</ele>
        <time>2016-05-15T06:21:11Z</time>
      </trkpt>
      <trkpt lat="43.55127" lon="5.86483">
        <ele>483</ele>
        <time>2016-05-15T06:21:16Z</time>
      </trkpt>
      <trkpt lat="43.55117" lon="5.86505">
        <ele>480</ele>
        <time>2016-05-15T06:21:21Z</time>
      </trkpt>
      <trkpt lat="43.55104" lon="5.86524">
        <ele>480</ele>
        <time>2016-05-15T06:21:26Z</time>
      </trkpt>
      <trkpt lat="43.55091" lon="5.86548">
        <ele>480</ele>
        <time>2016-05-15T06:21:32Z</time>
      </trkpt>
      <trkpt lat="43.55077" lon="5.8657">
        <ele>485</ele>
        <time>2016-05-15T06:21:38Z</time>
      </trkpt>
      <trkpt lat="43.5506" lon="5.86588">
        <ele>483</ele>
        <time>2016-05-15T06:21:43Z</time>
      </trkpt>
      <trkpt lat="43.55043" lon="5.86605">
        <ele>483</ele>
        <time>2016-05-15T06:21:47Z</time>
      </trkpt>
      <trkpt lat="43.55028" lon="5.8662">
        <ele>484</ele>
        <time>2016-05-15T06:21:51Z</time>
      </trkpt>
      <trkpt lat="43.55012" lon="5.86631">
        <ele>483</ele>
        <time>2016-05-15T06:21:56Z</time>
      </trkpt>
      <trkpt lat="43.54995" lon="5.86649">
        <ele>483</ele>
        <time>2016-05-15T06:22:02Z</time>
      </trkpt>
      <trkpt lat="43.54976" lon="5.86662">
        <ele>483</ele>
        <time>2016-05-15T06:22:08Z</time>
      </trkpt>
      <trkpt lat="43.54956" lon="5.86662">
        <ele>483</ele>
        <time>2016-05-15T06:22:15Z</time>
      </trkpt>
      <trkpt lat="43.5494" lon="5.86647">
        <ele>483</ele>
        <time>2016-05-15T06:22:21Z</time>
      </trkpt>
      <trkpt lat="43.54919" lon="5.86637">
        <ele>483</ele>
        <time>2016-05-15T06:22:26Z</time>
      </trkpt>
      <trkpt lat="43.549" lon="5.86625">
        <ele>483</ele>
        <time>2016-05-15T06:22:30Z</time>
      </trkpt>
      <trkpt lat="43.54881" lon="5.86612">
        <ele>483</ele>
        <time>2016-05-15T06:22:34Z</time>
      </trkpt>
      <trkpt lat="43.54863" lon="5.86606">
        <ele>483</ele>
        <time>2016-05-15T06:22:39Z</time>
      </trkpt>
      <trkpt lat="43.54849" lon="5.86628">
        <ele>482</ele>
        <time>2016-05-15T06:22:45Z</time>
      </trkpt>
      <trkpt lat="43.54842" lon="5.86657">
        <ele>481</ele>
        <time>2016-05-15T06:22:50Z</time>
      </trkpt>
      <trkpt lat="43.54838" lon="5.86685">
        <ele>479</ele>
        <time>2016-05-15T06:22:57Z</time>
      </trkpt>
      <trkpt lat="43.5483" lon="5.86709">
        <ele>486</ele>
        <time>2016-05-15T06:23:02Z</time>
      </trkpt>
      <trkpt lat="43.54821" lon="5.86735">
        <ele>485</ele>
        <time>2016-05-15T06:23:07Z</time>
      </trkpt>
      <trkpt lat="43.54821" lon="5.8676">
        <ele>485</ele>
        <time>2016-05-15T06:23:12Z</time>
      </trkpt>
      <trkpt lat="43.5482" lon="5.86787">
        <ele>487</ele>
        <time>2016-05-15T06:23:20Z</time>
      </trkpt>
      <trkpt lat="43.54822" lon="5.86814">
        <ele>488</ele>
        <time>2016-05-15T06:23:27Z</time>
      </trkpt>
      <trkpt lat="43.54816" lon="5.86841">
        <ele>488</ele>
        <time>2016-05-15T06:23:34Z</time>
      </trkpt>
      <trkpt lat="43.54808" lon="5.86866">
        <ele>489</ele>
        <time>2016-05-15T06:23:40Z</time>
      </trkpt>
      <trkpt lat="43.54798" lon="5.86891">
        <ele>489</ele>
        <time>2016-05-15T06:23:46Z</time>
      </trkpt>
      <trkpt lat="43.54786" lon="5.86913">
        <ele>490</ele>
        <time>2016-05-15T06:23:51Z</time>
      </trkpt>
      <trkpt lat="43.54775" lon="5.86932">
        <ele>488</ele>
        <time>2016-05-15T06:23:55Z</time>
      </trkpt>
      <trkpt lat="43.5476" lon="5.86953">
        <ele>487</ele>
        <time>2016-05-15T06:24:00Z</time>
      </trkpt>
      <trkpt lat="43.54748" lon="5.86974">
        <ele>490</ele>
        <time>2016-05-15T06:24:06Z</time>
      </trkpt>
      <trkpt lat="43.54734" lon="5.86991">
        <ele>489</ele>
        <time>2016-05-15T06:24:12Z</time>
      </trkpt>
      <trkpt lat="43.54719" lon="5.8701">
        <ele>486</ele>
        <time>2016-05-15T06:24:18Z</time>
      </trkpt>
      <trkpt lat="43.54703" lon="5.87022">
        <ele>486</ele>
        <time>2016-05-15T06:24:23Z</time>
      </trkpt>
      <trkpt lat="43.54683" lon="5.87037">
        <ele>486</ele>
        <time>2016-05-15T06:24:28Z</time>
      </trkpt>
      <trkpt lat="43.54665" lon="5.87049">
        <ele>487</ele>
        <time>2016-05-15T06:24:33Z</time>
      </trkpt>
      <trkpt lat="43.54645" lon="5.87066">
        <ele>487</ele>
        <time>2016-05-15T06:24:38Z</time>
      </trkpt>
      <trkpt lat="43.54626" lon="5.87078">
        <ele>487</ele>
        <time>2016-05-15T06:24:42Z</time>
      </trkpt>
      <trkpt lat="43.54608" lon="5.87079">
        <ele>488</ele>
        <time>2016-05-15T06:27:20Z</time>
      </trkpt>
      <trkpt lat="43.54616" lon="5.87101">
        <ele>484</ele>
        <time>2016-05-15T06:27:31Z</time>
      </trkpt>
      <trkpt lat="43.54628" lon="5.87123">
        <ele>482</ele>
        <time>2016-05-15T06:27:36Z</time>
      </trkpt>
      <trkpt lat="43.54641" lon="5.87143">
        <ele>481</ele>
        <time>2016-05-15T06:27:41Z</time>
      </trkpt>
      <trkpt lat="43.5464" lon="5.87171">
        <ele>478</ele>
        <time>2016-05-15T06:27:46Z</time>
      </trkpt>
      <trkpt lat="43.54632" lon="5.87197">
        <ele>478</ele>
        <time>2016-05-15T06:27:52Z</time>
      </trkpt>
      <trkpt lat="43.54624" lon="5.8722">
        <ele>478</ele>
        <time>2016-05-15T06:27:58Z</time>
      </trkpt>
      <trkpt lat="43.54617" lon="5.87247">
        <ele>478</ele>
        <time>2016-05-15T06:28:03Z</time>
      </trkpt>
      <trkpt lat="43.54601" lon="5.87264">
        <ele>478</ele>
        <time>2016-05-15T06:28:08Z</time>
      </trkpt>
      <trkpt lat="43.54595" lon="5.87288">
        <ele>477</ele>
        <time>2016-05-15T06:28:14Z</time>
      </trkpt>
      <trkpt lat="43.54616" lon="5.87294">
        <ele>477</ele>
        <time>2016-05-15T06:28:22Z</time>
      </trkpt>
      <trkpt lat="43.54636" lon="5.87288">
        <ele>476</ele>
        <time>2016-05-15T06:28:26Z</time>
      </trkpt>
      <trkpt lat="43.54658" lon="5.87285">
        <ele>475</ele>
        <time>2016-05-15T06:28:30Z</time>
      </trkpt>
      <trkpt lat="43.54681" lon="5.87278">
        <ele>472</ele>
        <time>2016-05-15T06:28:34Z</time>
      </trkpt>
      <trkpt lat="43.54702" lon="5.87274">
        <ele>471</ele>
        <time>2016-05-15T06:28:38Z</time>
      </trkpt>
      <trkpt lat="43.54725" lon="5.87274">
        <ele>471</ele>
        <time>2016-05-15T06:28:42Z</time>
      </trkpt>
      <trkpt lat="43.54743" lon="5.8728">
        <ele>470</ele>
        <time>2016-05-15T06:28:45Z</time>
      </trkpt>
      <trkpt lat="43.54766" lon="5.87287">
        <ele>468</ele>
        <time>2016-05-15T06:28:49Z</time>
      </trkpt>
      <trkpt lat="43.54781" lon="5.87309">
        <ele>468</ele>
        <time>2016-05-15T06:28:53Z</time>
      </trkpt>
      <trkpt lat="43.54796" lon="5.87325">
        <ele>467</ele>
        <time>2016-05-15T06:28:57Z</time>
      </trkpt>
      <trkpt lat="43.54816" lon="5.87317">
        <ele>467</ele>
        <time>2016-05-15T06:29:01Z</time>
      </trkpt>
      <trkpt lat="43.54835" lon="5.87301">
        <ele>465</ele>
        <time>2016-05-15T06:29:05Z</time>
      </trkpt>
      <trkpt lat="43.5485" lon="5.87279">
        <ele>465</ele>
        <time>2016-05-15T06:29:09Z</time>
      </trkpt>
      <trkpt lat="43.54868" lon="5.8727">
        <ele>464</ele>
        <time>2016-05-15T06:29:13Z</time>
      </trkpt>
      <trkpt lat="43.54888" lon="5.87273">
        <ele>464</ele>
        <time>2016-05-15T06:29:17Z</time>
      </trkpt>
      <trkpt lat="43.5491" lon="5.87271">
        <ele>463</ele>
        <time>2016-05-15T06:29:21Z</time>
      </trkpt>
      <trkpt lat="43.54931" lon="5.8726">
        <ele>462</ele>
        <time>2016-05-15T06:29:25Z</time>
      </trkpt>
      <trkpt lat="43.54951" lon="5.87242">
        <ele>459</ele>
        <time>2016-05-15T06:29:29Z</time>
      </trkpt>
      <trkpt lat="43.54963" lon="5.87224">
        <ele>459</ele>
        <time>2016-05-15T06:29:32Z</time>
      </trkpt>
      <trkpt lat="43.54981" lon="5.87205">
        <ele>458</ele>
        <time>2016-05-15T06:29:36Z</time>
      </trkpt>
      <trkpt lat="43.55001" lon="5.8719">
        <ele>456</ele>
        <time>2016-05-15T06:29:40Z</time>
      </trkpt>
      <trkpt lat="43.55023" lon="5.87187">
        <ele>456</ele>
        <time>2016-05-15T06:29:44Z</time>
      </trkpt>
      <trkpt lat="43.55046" lon="5.87194">
        <ele>455</ele>
        <time>2016-05-15T06:29:48Z</time>
      </trkpt>
      <trkpt lat="43.55067" lon="5.87202">
        <ele>455</ele>
        <time>2016-05-15T06:29:52Z</time>
      </trkpt>
      <trkpt lat="43.55085" lon="5.87215">
        <ele>451</ele>
        <time>2016-05-15T06:29:56Z</time>
      </trkpt>
      <trkpt lat="43.55104" lon="5.87216">
        <ele>450</ele>
        <time>2016-05-15T06:30:00Z</time>
      </trkpt>
      <trkpt lat="43.55125" lon="5.87212">
        <ele>449</ele>
        <time>2016-05-15T06:30:05Z</time>
      </trkpt>
      <trkpt lat="43.55143" lon="5.87221">
        <ele>448</ele>
        <time>2016-05-15T06:30:09Z</time>
      </trkpt>
      <trkpt lat="43.55163" lon="5.87233">
        <ele>446</ele>
        <time>2016-05-15T06:30:13Z</time>
      </trkpt>
      <trkpt lat="43.55186" lon="5.87245">
        <ele>444</ele>
        <time>2016-05-15T06:30:17Z</time>
      </trkpt>
      <trkpt lat="43.552" lon="5.87263">
        <ele>441</ele>
        <time>2016-05-15T06:30:20Z</time>
      </trkpt>
      <trkpt lat="43.55214" lon="5.87285">
        <ele>440</ele>
        <time>2016-05-15T06:30:23Z</time>
      </trkpt>
      <trkpt lat="43.55228" lon="5.87303">
        <ele>440</ele>
        <time>2016-05-15T06:30:26Z</time>
      </trkpt>
      <trkpt lat="43.5524" lon="5.87323">
        <ele>438</ele>
        <time>2016-05-15T06:30:29Z</time>
      </trkpt>
      <trkpt lat="43.55241" lon="5.8735">
        <ele>438</ele>
        <time>2016-05-15T06:30:35Z</time>
      </trkpt>
      <trkpt lat="43.55242" lon="5.87377">
        <ele>438</ele>
        <time>2016-05-15T06:30:41Z</time>
      </trkpt>
      <trkpt lat="43.55238" lon="5.87403">
        <ele>437</ele>
        <time>2016-05-15T06:30:50Z</time>
      </trkpt>
      <trkpt lat="43.55224" lon="5.8742">
        <ele>438</ele>
        <time>2016-05-15T06:31:49Z</time>
      </trkpt>
      <trkpt lat="43.5521" lon="5.87434">
        <ele>439</ele>
        <time>2016-05-15T06:32:00Z</time>
      </trkpt>
      <trkpt lat="43.55195" lon="5.8745">
        <ele>440</ele>
        <time>2016-05-15T06:32:11Z</time>
      </trkpt>
      <trkpt lat="43.55181" lon="5.87468">
        <ele>441</ele>
        <time>2016-05-15T06:32:21Z</time>
      </trkpt>
      <trkpt lat="43.55167" lon="5.87486">
        <ele>442</ele>
        <time>2016-05-15T06:32:31Z</time>
      </trkpt>
      <trkpt lat="43.55151" lon="5.87503">
        <ele>446</ele>
        <time>2016-05-15T06:32:41Z</time>
      </trkpt>
      <trkpt lat="43.55136" lon="5.8752">
        <ele>447</ele>
        <time>2016-05-15T06:32:50Z</time>
      </trkpt>
      <trkpt lat="43.55121" lon="5.87536">
        <ele>448</ele>
        <time>2016-05-15T06:32:59Z</time>
      </trkpt>
      <trkpt lat="43.55107" lon="5.87553">
        <ele>449</ele>
        <time>2016-05-15T06:33:09Z</time>
      </trkpt>
      <trkpt lat="43.55093" lon="5.87569">
        <ele>449</ele>
        <time>2016-05-15T06:33:19Z</time>
      </trkpt>
      <trkpt lat="43.55078" lon="5.87586">
        <ele>451</ele>
        <time>2016-05-15T06:33:29Z</time>
      </trkpt>
      <trkpt lat="43.55062" lon="5.87603">
        <ele>453</ele>
        <time>2016-05-15T06:33:39Z</time>
      </trkpt>
      <trkpt lat="43.55048" lon="5.87618">
        <ele>453</ele>
        <time>2016-05-15T06:33:48Z</time>
      </trkpt>
      <trkpt lat="43.55028" lon="5.87631">
        <ele>454</ele>
        <time>2016-05-15T06:33:59Z</time>
      </trkpt>
      <trkpt lat="43.55011" lon="5.8764">
        <ele>454</ele>
        <time>2016-05-15T06:34:08Z</time>
      </trkpt>
      <trkpt lat="43.54991" lon="5.87645">
        <ele>456</ele>
        <time>2016-05-15T06:34:17Z</time>
      </trkpt>
      <trkpt lat="43.54971" lon="5.8765">
        <ele>456</ele>
        <time>2016-05-15T06:34:23Z</time>
      </trkpt>
      <trkpt lat="43.54953" lon="5.87659">
        <ele>456</ele>
        <time>2016-05-15T06:34:27Z</time>
      </trkpt>
      <trkpt lat="43.54933" lon="5.87664">
        <ele>455</ele>
        <time>2016-05-15T06:34:33Z</time>
      </trkpt>
      <trkpt lat="43.54914" lon="5.87667">
        <ele>452</ele>
        <time>2016-05-15T06:34:40Z</time>
      </trkpt>
      <trkpt lat="43.54894" lon="5.8767">
        <ele>450</ele>
        <time>2016-05-15T06:34:44Z</time>
      </trkpt>
      <trkpt lat="43.54873" lon="5.87669">
        <ele>449</ele>
        <time>2016-05-15T06:34:50Z</time>
      </trkpt>
      <trkpt lat="43.54855" lon="5.87662">
        <ele>453</ele>
        <time>2016-05-15T06:34:56Z</time>
      </trkpt>
      <trkpt lat="43.54836" lon="5.87658">
        <ele>451</ele>
        <time>2016-05-15T06:35:01Z</time>
      </trkpt>
      <trkpt lat="43.54817" lon="5.87654">
        <ele>452</ele>
        <time>2016-05-15T06:35:07Z</time>
      </trkpt>
      <trkpt lat="43.54798" lon="5.87659">
        <ele>453</ele>
        <time>2016-05-15T06:35:14Z</time>
      </trkpt>
      <trkpt lat="43.54778" lon="5.87669">
        <ele>450</ele>
        <time>2016-05-15T06:35:22Z</time>
      </trkpt>
      <trkpt lat="43.54753" lon="5.8768">
        <ele>451</ele>
        <time>2016-05-15T06:35:30Z</time>
      </trkpt>
      <trkpt lat="43.54737" lon="5.87696">
        <ele>458</ele>
        <time>2016-05-15T06:35:37Z</time>
      </trkpt>
      <trkpt lat="43.54729" lon="5.87719">
        <ele>459</ele>
        <time>2016-05-15T06:35:46Z</time>
      </trkpt>
      <trkpt lat="43.54727" lon="5.87744">
        <ele>458</ele>
        <time>2016-05-15T06:35:54Z</time>
      </trkpt>
      <trkpt lat="43.5473" lon="5.87769">
        <ele>456</ele>
        <time>2016-05-15T06:36:01Z</time>
      </trkpt>
      <trkpt lat="43.54728" lon="5.87794">
        <ele>457</ele>
        <time>2016-05-15T06:36:09Z</time>
      </trkpt>
      <trkpt lat="43.5472" lon="5.87818">
        <ele>457</ele>
        <time>2016-05-15T06:36:18Z</time>
      </trkpt>
      <trkpt lat="43.54707" lon="5.87838">
        <ele>456</ele>
        <time>2016-05-15T06:36:27Z</time>
      </trkpt>
      <trkpt lat="43.54697" lon="5.87861">
        <ele>456</ele>
        <time>2016-05-15T06:36:35Z</time>
      </trkpt>
      <trkpt lat="43.54685" lon="5.87881">
        <ele>456</ele>
        <time>2016-05-15T06:36:43Z</time>
      </trkpt>
      <trkpt lat="43.54672" lon="5.87902">
        <ele>456</ele>
        <time>2016-05-15T06:36:50Z</time>
      </trkpt>
      <trkpt lat="43.54657" lon="5.87917">
        <ele>457</ele>
        <time>2016-05-15T06:36:56Z</time>
      </trkpt>
      <trkpt lat="43.5464" lon="5.87933">
        <ele>456</ele>
        <time>2016-05-15T06:37:02Z</time>
      </trkpt>
      <trkpt lat="43.54626" lon="5.87952">
        <ele>456</ele>
        <time>2016-05-15T06:37:08Z</time>
      </trkpt>
      <trkpt lat="43.54607" lon="5.87961">
        <ele>456</ele>
        <time>2016-05-15T06:37:12Z</time>
      </trkpt>
      <trkpt lat="43.5459" lon="5.87977">
        <ele>455</ele>
        <time>2016-05-15T06:37:22Z</time>
      </trkpt>
      <trkpt lat="43.54572" lon="5.87979">
        <ele>456</ele>
        <time>2016-05-15T06:37:26Z</time>
      </trkpt>
      <trkpt lat="43.54555" lon="5.87993">
        <ele>457</ele>
        <time>2016-05-15T06:37:32Z</time>
      </trkpt>
      <trkpt lat="43.54534" lon="5.88002">
        <ele>455</ele>
        <time>2016-05-15T06:37:36Z</time>
      </trkpt>
      <trkpt lat="43.54521" lon="5.88024">
        <ele>455</ele>
        <time>2016-05-15T06:37:44Z</time>
      </trkpt>
      <trkpt lat="43.54509" lon="5.88044">
        <ele>454</ele>
        <time>2016-05-15T06:37:51Z</time>
      </trkpt>
      <trkpt lat="43.54497" lon="5.88067">
        <ele>458</ele>
        <time>2016-05-15T06:37:58Z</time>
      </trkpt>
      <trkpt lat="43.54486" lon="5.8809">
        <ele>454</ele>
        <time>2016-05-15T06:38:04Z</time>
      </trkpt>
      <trkpt lat="43.54474" lon="5.88108">
        <ele>454</ele>
        <time>2016-05-15T06:38:09Z</time>
      </trkpt>
      <trkpt lat="43.54463" lon="5.8813">
        <ele>453</ele>
        <time>2016-05-15T06:38:15Z</time>
      </trkpt>
      <trkpt lat="43.54459" lon="5.88159">
        <ele>452</ele>
        <time>2016-05-15T06:38:21Z</time>
      </trkpt>
      <trkpt lat="43.54445" lon="5.88177">
        <ele>448</ele>
        <time>2016-05-15T06:38:26Z</time>
      </trkpt>
      <trkpt lat="43.54428" lon="5.88186">
        <ele>448</ele>
        <time>2016-05-15T06:38:31Z</time>
      </trkpt>
      <trkpt lat="43.54413" lon="5.88205">
        <ele>450</ele>
        <time>2016-05-15T06:38:36Z</time>
      </trkpt>
      <trkpt lat="43.54397" lon="5.8822">
        <ele>450</ele>
        <time>2016-05-15T06:38:40Z</time>
      </trkpt>
      <trkpt lat="43.54381" lon="5.88233">
        <ele>450</ele>
        <time>2016-05-15T06:38:45Z</time>
      </trkpt>
      <trkpt lat="43.54363" lon="5.88246">
        <ele>451</ele>
        <time>2016-05-15T06:38:51Z</time>
      </trkpt>
      <trkpt lat="43.54346" lon="5.88256">
        <ele>448</ele>
        <time>2016-05-15T06:38:57Z</time>
      </trkpt>
      <trkpt lat="43.5433" lon="5.88269">
        <ele>449</ele>
        <time>2016-05-15T06:39:03Z</time>
      </trkpt>
      <trkpt lat="43.54313" lon="5.8828">
        <ele>448</ele>
        <time>2016-05-15T06:39:08Z</time>
      </trkpt>
      <trkpt lat="43.54296" lon="5.88294">
        <ele>447</ele>
        <time>2016-05-15T06:39:13Z</time>
      </trkpt>
      <trkpt lat="43.54278" lon="5.88307">
        <ele>447</ele>
        <time>2016-05-15T06:39:17Z</time>
      </trkpt>
      <trkpt lat="43.54258" lon="5.88319">
        <ele>446</ele>
        <time>2016-05-15T06:39:21Z</time>
      </trkpt>
      <trkpt lat="43.5424" lon="5.88324">
        <ele>446</ele>
        <time>2016-05-15T06:39:24Z</time>
      </trkpt>
      <trkpt lat="43.54221" lon="5.8833">
        <ele>447</ele>
        <time>2016-05-15T06:39:27Z</time>
      </trkpt>
      <trkpt lat="43.54198" lon="5.88332">
        <ele>446</ele>
        <time>2016-05-15T06:39:30Z</time>
      </trkpt>
      <trkpt lat="43.54178" lon="5.88346">
        <ele>443</ele>
        <time>2016-05-15T06:39:34Z</time>
      </trkpt>
      <trkpt lat="43.54157" lon="5.88363">
        <ele>442</ele>
        <time>2016-05-15T06:39:38Z</time>
      </trkpt>
      <trkpt lat="43.54133" lon="5.88381">
        <ele>441</ele>
        <time>2016-05-15T06:39:41Z</time>
      </trkpt>
      <trkpt lat="43.54115" lon="5.88397">
        <ele>441</ele>
        <time>2016-05-15T06:39:43Z</time>
      </trkpt>
      <trkpt lat="43.541" lon="5.88411">
        <ele>439</ele>
        <time>2016-05-15T06:39:45Z</time>
      </trkpt>
      <trkpt lat="43.54083" lon="5.88421">
        <ele>437</ele>
        <time>2016-05-15T06:39:47Z</time>
      </trkpt>
      <trkpt lat="43.54063" lon="5.88428">
        <ele>436</ele>
        <time>2016-05-15T06:39:50Z</time>
      </trkpt>
      <trkpt lat="43.54045" lon="5.88439">
        <ele>436</ele>
        <time>2016-05-15T06:39:53Z</time>
      </trkpt>
      <trkpt lat="43.54025" lon="5.88448">
        <ele>437</ele>
        <time>2016-05-15T06:39:57Z</time>
      </trkpt>
      <trkpt lat="43.54008" lon="5.88457">
        <ele>437</ele>
        <time>2016-05-15T06:40:00Z</time>
      </trkpt>
      <trkpt lat="43.5399" lon="5.88462">
        <ele>437</ele>
        <time>2016-05-15T06:40:03Z</time>
      </trkpt>
      <trkpt lat="43.53971" lon="5.88459">
        <ele>437</ele>
        <time>2016-05-15T06:40:06Z</time>
      </trkpt>
      <trkpt lat="43.53954" lon="5.88452">
        <ele>437</ele>
        <time>2016-05-15T06:40:09Z</time>
      </trkpt>
      <trkpt lat="43.53937" lon="5.88443">
        <ele>438</ele>
        <time>2016-05-15T06:40:12Z</time>
      </trkpt>
      <trkpt lat="43.53917" lon="5.88442">
        <ele>438</ele>
        <time>2016-05-15T06:40:16Z</time>
      </trkpt>
      <trkpt lat="43.53898" lon="5.88437">
        <ele>433</ele>
        <time>2016-05-15T06:40:20Z</time>
      </trkpt>
      <trkpt lat="43.53875" lon="5.88435">
        <ele>431</ele>
        <time>2016-05-15T06:40:25Z</time>
      </trkpt>
      <trkpt lat="43.53856" lon="5.88445">
        <ele>429</ele>
        <time>2016-05-15T06:40:29Z</time>
      </trkpt>
      <trkpt lat="43.53835" lon="5.88442">
        <ele>428</ele>
        <time>2016-05-15T06:40:33Z</time>
      </trkpt>
      <trkpt lat="43.53817" lon="5.88436">
        <ele>425</ele>
        <time>2016-05-15T06:42:36Z</time>
      </trkpt>
      <trkpt lat="43.53799" lon="5.88422">
        <ele>426</ele>
        <time>2016-05-15T06:42:46Z</time>
      </trkpt>
      <trkpt lat="43.53781" lon="5.88432">
        <ele>426</ele>
        <time>2016-05-15T06:42:51Z</time>
      </trkpt>
      <trkpt lat="43.53762" lon="5.8844">
        <ele>426</ele>
        <time>2016-05-15T06:42:57Z</time>
      </trkpt>
      <trkpt lat="43.53755" lon="5.88467">
        <ele>424</ele>
        <time>2016-05-15T06:43:04Z</time>
      </trkpt>
      <trkpt lat="43.53743" lon="5.8849">
        <ele>425</ele>
        <time>2016-05-15T06:43:09Z</time>
      </trkpt>
      <trkpt lat="43.53731" lon="5.88511">
        <ele>422</ele>
        <time>2016-05-15T06:43:14Z</time>
      </trkpt>
      <trkpt lat="43.53715" lon="5.8853">
        <ele>422</ele>
        <time>2016-05-15T06:43:18Z</time>
      </trkpt>
      <trkpt lat="43.53697" lon="5.88552">
        <ele>421</ele>
        <time>2016-05-15T06:43:22Z</time>
      </trkpt>
      <trkpt lat="43.53681" lon="5.88569">
        <ele>420</ele>
        <time>2016-05-15T06:43:26Z</time>
      </trkpt>
      <trkpt lat="43.53663" lon="5.88584">
        <ele>417</ele>
        <time>2016-05-15T06:43:30Z</time>
      </trkpt>
      <trkpt lat="43.53646" lon="5.88599">
        <ele>415</ele>
        <time>2016-05-15T06:43:35Z</time>
      </trkpt>
      <trkpt lat="43.53629" lon="5.88615">
        <ele>415</ele>
        <time>2016-05-15T06:43:40Z</time>
      </trkpt>
      <trkpt lat="43.53611" lon="5.88624">
        <ele>415</ele>
        <time>2016-05-15T06:43:44Z</time>
      </trkpt>
      <trkpt lat="43.53589" lon="5.88628">
        <ele>414</ele>
        <time>2016-05-15T06:43:48Z</time>
      </trkpt>
      <trkpt lat="43.5357" lon="5.88632">
        <ele>418</ele>
        <time>2016-05-15T06:43:52Z</time>
      </trkpt>
      <trkpt lat="43.53557" lon="5.88649">
        <ele>418</ele>
        <time>2016-05-15T06:43:58Z</time>
      </trkpt>
      <trkpt lat="43.53544" lon="5.88673">
        <ele>414</ele>
        <time>2016-05-15T06:44:04Z</time>
      </trkpt>
      <trkpt lat="43.53531" lon="5.88692">
        <ele>414</ele>
        <time>2016-05-15T06:44:09Z</time>
      </trkpt>
      <trkpt lat="43.53517" lon="5.8871">
        <ele>414</ele>
        <time>2016-05-15T06:44:13Z</time>
      </trkpt>
      <trkpt lat="43.53498" lon="5.88725">
        <ele>416</ele>
        <time>2016-05-15T06:44:18Z</time>
      </trkpt>
      <trkpt lat="43.5348" lon="5.88731">
        <ele>416</ele>
        <time>2016-05-15T06:44:24Z</time>
      </trkpt>
      <trkpt lat="43.53483" lon="5.88706">
        <ele>418</ele>
        <time>2016-05-15T06:44:41Z</time>
      </trkpt>
      <trkpt lat="43.53495" lon="5.88685">
        <ele>419</ele>
        <time>2016-05-15T06:44:51Z</time>
      </trkpt>
      <trkpt lat="43.53508" lon="5.88665">
        <ele>421</ele>
        <time>2016-05-15T06:45:00Z</time>
      </trkpt>
      <trkpt lat="43.53517" lon="5.88643">
        <ele>420</ele>
        <time>2016-05-15T06:45:08Z</time>
      </trkpt>
      <trkpt lat="43.53522" lon="5.88617">
        <ele>421</ele>
        <time>2016-05-15T06:45:16Z</time>
      </trkpt>
      <trkpt lat="43.53524" lon="5.88589">
        <ele>423</ele>
        <time>2016-05-15T06:45:24Z</time>
      </trkpt>
      <trkpt lat="43.53525" lon="5.88562">
        <ele>428</ele>
        <time>2016-05-15T06:45:32Z</time>
      </trkpt>
      <trkpt lat="43.53524" lon="5.88535">
        <ele>429</ele>
        <time>2016-05-15T06:45:40Z</time>
      </trkpt>
      <trkpt lat="43.53525" lon="5.88509">
        <ele>430</ele>
        <time>2016-05-15T06:45:47Z</time>
      </trkpt>
      <trkpt lat="43.5352" lon="5.88482">
        <ele>434</ele>
        <time>2016-05-15T06:45:55Z</time>
      </trkpt>
      <trkpt lat="43.53514" lon="5.88459">
        <ele>434</ele>
        <time>2016-05-15T06:46:03Z</time>
      </trkpt>
      <trkpt lat="43.53511" lon="5.88432">
        <ele>435</ele>
        <time>2016-05-15T06:46:13Z</time>
      </trkpt>
      <trkpt lat="43.53531" lon="5.8843">
        <ele>435</ele>
        <time>2016-05-15T06:46:24Z</time>
      </trkpt>
      <trkpt lat="43.53549" lon="5.88436">
        <ele>435</ele>
        <time>2016-05-15T06:46:33Z</time>
      </trkpt>
      <trkpt lat="43.53568" lon="5.8843">
        <ele>435</ele>
        <time>2016-05-15T06:46:42Z</time>
      </trkpt>
      <trkpt lat="43.53583" lon="5.88445">
        <ele>435</ele>
        <time>2016-05-15T06:46:51Z</time>
      </trkpt>
      <trkpt lat="43.53589" lon="5.88471">
        <ele>433</ele>
        <time>2016-05-15T06:47:00Z</time>
      </trkpt>
      <trkpt lat="43.53601" lon="5.8849">
        <ele>433</ele>
        <time>2016-05-15T06:47:08Z</time>
      </trkpt>
      <trkpt lat="43.53621" lon="5.88491">
        <ele>433</ele>
        <time>2016-05-15T06:47:16Z</time>
      </trkpt>
      <trkpt lat="43.53637" lon="5.88478">
        <ele>434</ele>
        <time>2016-05-15T06:47:24Z</time>
      </trkpt>
      <trkpt lat="43.53652" lon="5.88461">
        <ele>435</ele>
        <time>2016-05-15T06:47:33Z</time>
      </trkpt>
      <trkpt lat="43.53666" lon="5.88442">
        <ele>437</ele>
        <time>2016-05-15T06:47:42Z</time>
      </trkpt>
      <trkpt lat="43.53678" lon="5.88422">
        <ele>436</ele>
        <time>2016-05-15T06:47:51Z</time>
      </trkpt>
      <trkpt lat="43.53687" lon="5.884">
        <ele>440</ele>
        <time>2016-05-15T06:48:00Z</time>
      </trkpt>
      <trkpt lat="43.53696" lon="5.88375">
        <ele>441</ele>
        <time>2016-05-15T06:48:09Z</time>
      </trkpt>
      <trkpt lat="43.53705" lon="5.88352">
        <ele>441</ele>
        <time>2016-05-15T06:48:18Z</time>
      </trkpt>
      <trkpt lat="43.53715" lon="5.88331">
        <ele>447</ele>
        <time>2016-05-15T06:48:26Z</time>
      </trkpt>
      <trkpt lat="43.53725" lon="5.88307">
        <ele>447</ele>
        <time>2016-05-15T06:48:35Z</time>
      </trkpt>
      <trkpt lat="43.53735" lon="5.88284">
        <ele>448</ele>
        <time>2016-05-15T06:48:43Z</time>
      </trkpt>
      <trkpt lat="43.53746" lon="5.88262">
        <ele>448</ele>
        <time>2016-05-15T06:48:52Z</time>
      </trkpt>
      <trkpt lat="43.53755" lon="5.88238">
        <ele>448</ele>
        <time>2016-05-15T06:49:01Z</time>
      </trkpt>
      <trkpt lat="43.53761" lon="5.88214">
        <ele>449</ele>
        <time>2016-05-15T06:49:09Z</time>
      </trkpt>
      <trkpt lat="43.53767" lon="5.8819">
        <ele>450</ele>
        <time>2016-05-15T06:49:17Z</time>
      </trkpt>
      <trkpt lat="43.53773" lon="5.88165">
        <ele>455</ele>
        <time>2016-05-15T06:49:26Z</time>
      </trkpt>
      <trkpt lat="43.53773" lon="5.88139">
        <ele>456</ele>
        <time>2016-05-15T06:49:34Z</time>
      </trkpt>
      <trkpt lat="43.53772" lon="5.88114">
        <ele>458</ele>
        <time>2016-05-15T06:49:42Z</time>
      </trkpt>
      <trkpt lat="43.53771" lon="5.88086">
        <ele>461</ele>
        <time>2016-05-15T06:49:51Z</time>
      </trkpt>
      <trkpt lat="43.53771" lon="5.8806">
        <ele>464</ele>
        <time>2016-05-15T06:50:00Z</time>
      </trkpt>
      <trkpt lat="43.53772" lon="5.88035">
        <ele>465</ele>
        <time>2016-05-15T06:50:10Z</time>
      </trkpt>
      <trkpt lat="43.53776" lon="5.8801">
        <ele>466</ele>
        <time>2016-05-15T06:50:19Z</time>
      </trkpt>
      <trkpt lat="43.5378" lon="5.87983">
        <ele>468</ele>
        <time>2016-05-15T06:50:28Z</time>
      </trkpt>
      <trkpt lat="43.53781" lon="5.87957">
        <ele>468</ele>
        <time>2016-05-15T06:50:36Z</time>
      </trkpt>
      <trkpt lat="43.5378" lon="5.8793">
        <ele>469</ele>
        <time>2016-05-15T06:50:45Z</time>
      </trkpt>
      <trkpt lat="43.53778" lon="5.87905">
        <ele>472</ele>
        <time>2016-05-15T06:50:53Z</time>
      </trkpt>
      <trkpt lat="43.5378" lon="5.87881">
        <ele>472</ele>
        <time>2016-05-15T06:51:01Z</time>
      </trkpt>
      <trkpt lat="43.53784" lon="5.87856">
        <ele>473</ele>
        <time>2016-05-15T06:51:10Z</time>
      </trkpt>
      <trkpt lat="43.53786" lon="5.8783">
        <ele>477</ele>
        <time>2016-05-15T06:51:18Z</time>
      </trkpt>
      <trkpt lat="43.53784" lon="5.87805">
        <ele>478</ele>
        <time>2016-05-15T06:51:26Z</time>
      </trkpt>
      <trkpt lat="43.53779" lon="5.87779">
        <ele>479</ele>
        <time>2016-05-15T06:51:34Z</time>
      </trkpt>
      <trkpt lat="43.53777" lon="5.87753">
        <ele>481</ele>
        <time>2016-05-15T06:51:43Z</time>
      </trkpt>
      <trkpt lat="43.53779" lon="5.87726">
        <ele>483</ele>
        <time>2016-05-15T06:51:53Z</time>
      </trkpt>
      <trkpt lat="43.53782" lon="5.877">
        <ele>484</ele>
        <time>2016-05-15T06:52:04Z</time>
      </trkpt>
      <trkpt lat="43.53782" lon="5.87673">
        <ele>484</ele>
        <time>2016-05-15T06:52:13Z</time>
      </trkpt>
      <trkpt lat="43.53778" lon="5.87647">
        <ele>487</ele>
        <time>2016-05-15T06:52:23Z</time>
      </trkpt>
      <trkpt lat="43.53767" lon="5.87624">
        <ele>488</ele>
        <time>2016-05-15T06:52:32Z</time>
      </trkpt>
      <trkpt lat="43.53774" lon="5.876">
        <ele>488</ele>
        <time>2016-05-15T06:52:41Z</time>
      </trkpt>
      <trkpt lat="43.53793" lon="5.87597">
        <ele>487</ele>
        <time>2016-05-15T06:52:50Z</time>
      </trkpt>
      <trkpt lat="43.5381" lon="5.87587">
        <ele>486</ele>
        <time>2016-05-15T06:52:58Z</time>
      </trkpt>
      <trkpt lat="43.53818" lon="5.87562">
        <ele>491</ele>
        <time>2016-05-15T06:53:07Z</time>
      </trkpt>
      <trkpt lat="43.53832" lon="5.87543">
        <ele>493</ele>
        <time>2016-05-15T06:53:16Z</time>
      </trkpt>
      <trkpt lat="43.53848" lon="5.8753">
        <ele>490</ele>
        <time>2016-05-15T06:53:24Z</time>
      </trkpt>
      <trkpt lat="43.53865" lon="5.87519">
        <ele>490</ele>
        <time>2016-05-15T06:53:32Z</time>
      </trkpt>
      <trkpt lat="43.53877" lon="5.87498">
        <ele>494</ele>
        <time>2016-05-15T06:53:41Z</time>
      </trkpt>
      <trkpt lat="43.53885" lon="5.87474">
        <ele>495</ele>
        <time>2016-05-15T06:53:50Z</time>
      </trkpt>
      <trkpt lat="43.53904" lon="5.87465">
        <ele>495</ele>
        <time>2016-05-15T06:53:59Z</time>
      </trkpt>
      <trkpt lat="43.53921" lon="5.87451">
        <ele>495</ele>
        <time>2016-05-15T06:54:08Z</time>
      </trkpt>
      <trkpt lat="43.53934" lon="5.87432">
        <ele>496</ele>
        <time>2016-05-15T06:54:16Z</time>
      </trkpt>
      <trkpt lat="43.53946" lon="5.8741">
        <ele>498</ele>
        <time>2016-05-15T06:54:25Z</time>
      </trkpt>
      <trkpt lat="43.53958" lon="5.8739">
        <ele>499</ele>
        <time>2016-05-15T06:54:34Z</time>
      </trkpt>
      <trkpt lat="43.53967" lon="5.87366">
        <ele>499</ele>
        <time>2016-05-15T06:54:44Z</time>
      </trkpt>
      <trkpt lat="43.53975" lon="5.87342">
        <ele>500</ele>
        <time>2016-05-15T06:54:54Z</time>
      </trkpt>
      <trkpt lat="43.53986" lon="5.87319">
        <ele>502</ele>
        <time>2016-05-15T06:55:04Z</time>
      </trkpt>
      <trkpt lat="43.53996" lon="5.87296">
        <ele>502</ele>
        <time>2016-05-15T06:55:14Z</time>
      </trkpt>
      <trkpt lat="43.54005" lon="5.87274">
        <ele>502</ele>
        <time>2016-05-15T06:59:20Z</time>
      </trkpt>
      <trkpt lat="43.54014" lon="5.87249">
        <ele>503</ele>
        <time>2016-05-15T06:59:30Z</time>
      </trkpt>
      <trkpt lat="43.54024" lon="5.87225">
        <ele>503</ele>
        <time>2016-05-15T06:59:39Z</time>
      </trkpt>
      <trkpt lat="43.54034" lon="5.87203">
        <ele>502</ele>
        <time>2016-05-15T06:59:46Z</time>
      </trkpt>
      <trkpt lat="43.54046" lon="5.8718">
        <ele>503</ele>
        <time>2016-05-15T06:59:53Z</time>
      </trkpt>
      <trkpt lat="43.54057" lon="5.87158">
        <ele>502</ele>
        <time>2016-05-15T06:59:59Z</time>
      </trkpt>
      <trkpt lat="43.54067" lon="5.87134">
        <ele>502</ele>
        <time>2016-05-15T07:00:05Z</time>
      </trkpt>
      <trkpt lat="43.5408" lon="5.87113">
        <ele>502</ele>
        <time>2016-05-15T07:00:11Z</time>
      </trkpt>
      <trkpt lat="43.54095" lon="5.87093">
        <ele>502</ele>
        <time>2016-05-15T07:00:17Z</time>
      </trkpt>
      <trkpt lat="43.5411" lon="5.87077">
        <ele>502</ele>
        <time>2016-05-15T07:00:22Z</time>
      </trkpt>
      <trkpt lat="43.54123" lon="5.8706">
        <ele>502</ele>
        <time>2016-05-15T07:00:27Z</time>
      </trkpt>
      <trkpt lat="43.54134" lon="5.87039">
        <ele>502</ele>
        <time>2016-05-15T07:00:31Z</time>
      </trkpt>
      <trkpt lat="43.54144" lon="5.87018">
        <ele>502</ele>
        <time>2016-05-15T07:00:35Z</time>
      </trkpt>
      <trkpt lat="43.54156" lon="5.86998">
        <ele>502</ele>
        <time>2016-05-15T07:00:39Z</time>
      </trkpt>
      <trkpt lat="43.54169" lon="5.86977">
        <ele>501</ele>
        <time>2016-05-15T07:00:44Z</time>
      </trkpt>
      <trkpt lat="43.54183" lon="5.86955">
        <ele>501</ele>
        <time>2016-05-15T07:00:49Z</time>
      </trkpt>
      <trkpt lat="43.54196" lon="5.86937">
        <ele>501</ele>
        <time>2016-05-15T07:00:53Z</time>
      </trkpt>
      <trkpt lat="43.54211" lon="5.86919">
        <ele>501</ele>
        <time>2016-05-15T07:00:58Z</time>
      </trkpt>
      <trkpt lat="43.54224" lon="5.86898">
        <ele>500</ele>
        <time>2016-05-15T07:01:03Z</time>
      </trkpt>
      <trkpt lat="43.54229" lon="5.86867">
        <ele>500</ele>
        <time>2016-05-15T07:01:08Z</time>
      </trkpt>
      <trkpt lat="43.54234" lon="5.86842">
        <ele>500</ele>
        <time>2016-05-15T07:01:12Z</time>
      </trkpt>
      <trkpt lat="43.54238" lon="5.86816">
        <ele>500</ele>
        <time>2016-05-15T07:01:16Z</time>
      </trkpt>
      <trkpt lat="43.54241" lon="5.8679">
        <ele>500</ele>
        <time>2016-05-15T07:01:20Z</time>
      </trkpt>
      <trkpt lat="43.54245" lon="5.86765">
        <ele>500</ele>
        <time>2016-05-15T07:01:24Z</time>
      </trkpt>
      <trkpt lat="43.54251" lon="5.86741">
        <ele>501</ele>
        <time>2016-05-15T07:01:28Z</time>
      </trkpt>
      <trkpt lat="43.54256" lon="5.86715">
        <ele>501</ele>
        <time>2016-05-15T07:01:32Z</time>
      </trkpt>
      <trkpt lat="43.54262" lon="5.86691">
        <ele>501</ele>
        <time>2016-05-15T07:01:36Z</time>
      </trkpt>
      <trkpt lat="43.54268" lon="5.86663">
        <ele>501</ele>
        <time>2016-05-15T07:01:41Z</time>
      </trkpt>
      <trkpt lat="43.54271" lon="5.86633">
        <ele>501</ele>
        <time>2016-05-15T07:01:46Z</time>
      </trkpt>
      <trkpt lat="43.54275" lon="5.86602">
        <ele>501</ele>
        <time>2016-05-15T07:01:51Z</time>
      </trkpt>
      <trkpt lat="43.5428" lon="5.86578">
        <ele>502</ele>
        <time>2016-05-15T07:01:55Z</time>
      </trkpt>
      <trkpt lat="43.54285" lon="5.86554">
        <ele>502</ele>
        <time>2016-05-15T07:01:59Z</time>
      </trkpt>
      <trkpt lat="43.5429" lon="5.8653">
        <ele>502</ele>
        <time>2016-05-15T07:02:03Z</time>
      </trkpt>
      <trkpt lat="43.54296" lon="5.86503">
        <ele>502</ele>
        <time>2016-05-15T07:02:07Z</time>
      </trkpt>
      <trkpt lat="43.54302" lon="5.86474">
        <ele>502</ele>
        <time>2016-05-15T07:02:11Z</time>
      </trkpt>
      <trkpt lat="43.54308" lon="5.86444">
        <ele>502</ele>
        <time>2016-05-15T07:02:15Z</time>
      </trkpt>
      <trkpt lat="43.54313" lon="5.86415">
        <ele>502</ele>
        <time>2016-05-15T07:02:19Z</time>
      </trkpt>
      <trkpt lat="43.54319" lon="5.86386">
        <ele>502</ele>
        <time>2016-05-15T07:02:23Z</time>
      </trkpt>
      <trkpt lat="43.54325" lon="5.86358">
        <ele>501</ele>
        <time>2016-05-15T07:02:27Z</time>
      </trkpt>
      <trkpt lat="43.54332" lon="5.86331">
        <ele>502</ele>
        <time>2016-05-15T07:02:31Z</time>
      </trkpt>
      <trkpt lat="43.54337" lon="5.86305">
        <ele>503</ele>
        <time>2016-05-15T07:02:35Z</time>
      </trkpt>
      <trkpt lat="43.54342" lon="5.86279">
        <ele>502</ele>
        <time>2016-05-15T07:02:39Z</time>
      </trkpt>
      <trkpt lat="43.54346" lon="5.86253">
        <ele>502</ele>
        <time>2016-05-15T07:02:43Z</time>
      </trkpt>
      <trkpt lat="43.5435" lon="5.86227">
        <ele>502</ele>
        <time>2016-05-15T07:02:47Z</time>
      </trkpt>
      <trkpt lat="43.54355" lon="5.86202">
        <ele>503</ele>
        <time>2016-05-15T07:02:51Z</time>
      </trkpt>
      <trkpt lat="43.5436" lon="5.86177">
        <ele>503</ele>
        <time>2016-05-15T07:02:55Z</time>
      </trkpt>
      <trkpt lat="43.54366" lon="5.86154">
        <ele>503</ele>
        <time>2016-05-15T07:03:00Z</time>
      </trkpt>
      <trkpt lat="43.54372" lon="5.8613">
        <ele>503</ele>
        <time>2016-05-15T07:03:06Z</time>
      </trkpt>
      <trkpt lat="43.54378" lon="5.86105">
        <ele>503</ele>
        <time>2016-05-15T07:03:12Z</time>
      </trkpt>
      <trkpt lat="43.54383" lon="5.86081">
        <ele>503</ele>
        <time>2016-05-15T07:03:18Z</time>
      </trkpt>
      <trkpt lat="43.54387" lon="5.86053">
        <ele>503</ele>
        <time>2016-05-15T07:03:25Z</time>
      </trkpt>
      <trkpt lat="43.54391" lon="5.86026">
        <ele>503</ele>
        <time>2016-05-15T07:03:31Z</time>
      </trkpt>
      <trkpt lat="43.54394" lon="5.85996">
        <ele>502</ele>
        <time>2016-05-15T07:03:37Z</time>
      </trkpt>
      <trkpt lat="43.54397" lon="5.85968">
        <ele>502</ele>
        <time>2016-05-15T07:03:43Z</time>
      </trkpt>
      <trkpt lat="43.54401" lon="5.85941">
        <ele>502</ele>
        <time>2016-05-15T07:03:50Z</time>
      </trkpt>
      <trkpt lat="43.54391" lon="5.85929">
        <ele>502</ele>
        <time>2016-05-15T07:07:08Z</time>
      </trkpt>
      <trkpt lat="43.54388" lon="5.85902">
        <ele>500</ele>
        <time>2016-05-15T07:07:13Z</time>
      </trkpt>
      <trkpt lat="43.5438" lon="5.85875">
        <ele>499</ele>
        <time>2016-05-15T07:07:19Z</time>
      </trkpt>
      <trkpt lat="43.5438" lon="5.85848">
        <ele>498</ele>
        <time>2016-05-15T07:07:26Z</time>
      </trkpt>
      <trkpt lat="43.54389" lon="5.85824">
        <ele>497</ele>
        <time>2016-05-15T07:07:31Z</time>
      </trkpt>
      <trkpt lat="43.54398" lon="5.85801">
        <ele>497</ele>
        <time>2016-05-15T07:07:35Z</time>
      </trkpt>
      <trkpt lat="43.54378" lon="5.85798">
        <ele>496</ele>
        <time>2016-05-15T07:07:47Z</time>
      </trkpt>
      <trkpt lat="43.54358" lon="5.85807">
        <ele>496</ele>
        <time>2016-05-15T07:07:54Z</time>
      </trkpt>
      <trkpt lat="43.54339" lon="5.85816">
        <ele>495</ele>
        <time>2016-05-15T07:07:59Z</time>
      </trkpt>
      <trkpt lat="43.54322" lon="5.85827">
        <ele>494</ele>
        <time>2016-05-15T07:08:04Z</time>
      </trkpt>
      <trkpt lat="43.54304" lon="5.85841">
        <ele>495</ele>
        <time>2016-05-15T07:08:10Z</time>
      </trkpt>
      <trkpt lat="43.54284" lon="5.85854">
        <ele>495</ele>
        <time>2016-05-15T07:08:16Z</time>
      </trkpt>
      <trkpt lat="43.54266" lon="5.85852">
        <ele>494</ele>
        <time>2016-05-15T07:08:23Z</time>
      </trkpt>
      <trkpt lat="43.54245" lon="5.85849">
        <ele>493</ele>
        <time>2016-05-15T07:08:35Z</time>
      </trkpt>
      <trkpt lat="43.54224" lon="5.85853">
        <ele>493</ele>
        <time>2016-05-15T07:08:40Z</time>
      </trkpt>
      <trkpt lat="43.54207" lon="5.85861">
        <ele>493</ele>
        <time>2016-05-15T07:08:44Z</time>
      </trkpt>
      <trkpt lat="43.54189" lon="5.85873">
        <ele>493</ele>
        <time>2016-05-15T07:08:49Z</time>
      </trkpt>
      <trkpt lat="43.54172" lon="5.85888">
        <ele>493</ele>
        <time>2016-05-15T07:08:54Z</time>
      </trkpt>
      <trkpt lat="43.54151" lon="5.85899">
        <ele>492</ele>
        <time>2016-05-15T07:08:59Z</time>
      </trkpt>
      <trkpt lat="43.54135" lon="5.85911">
        <ele>492</ele>
        <time>2016-05-15T07:09:03Z</time>
      </trkpt>
      <trkpt lat="43.54118" lon="5.85921">
        <ele>492</ele>
        <time>2016-05-15T07:09:07Z</time>
      </trkpt>
      <trkpt lat="43.54098" lon="5.85932">
        <ele>492</ele>
        <time>2016-05-15T07:09:11Z</time>
      </trkpt>
      <trkpt lat="43.54081" lon="5.85945">
        <ele>490</ele>
        <time>2016-05-15T07:09:15Z</time>
      </trkpt>
      <trkpt lat="43.54065" lon="5.85959">
        <ele>490</ele>
        <time>2016-05-15T07:09:19Z</time>
      </trkpt>
      <trkpt lat="43.54046" lon="5.85968">
        <ele>490</ele>
        <time>2016-05-15T07:09:23Z</time>
      </trkpt>
      <trkpt lat="43.54028" lon="5.85965">
        <ele>490</ele>
        <time>2016-05-15T07:09:27Z</time>
      </trkpt>
      <trkpt lat="43.54012" lon="5.85946">
        <ele>490</ele>
        <time>2016-05-15T07:09:32Z</time>
      </trkpt>
      <trkpt lat="43.53995" lon="5.85936">
        <ele>490</ele>
        <time>2016-05-15T07:09:36Z</time>
      </trkpt>
      <trkpt lat="43.53974" lon="5.85934">
        <ele>490</ele>
        <time>2016-05-15T07:09:40Z</time>
      </trkpt>
      <trkpt lat="43.53952" lon="5.85936">
        <ele>491</ele>
        <time>2016-05-15T07:09:44Z</time>
      </trkpt>
      <trkpt lat="43.5393" lon="5.85939">
        <ele>491</ele>
        <time>2016-05-15T07:09:48Z</time>
      </trkpt>
      <trkpt lat="43.53906" lon="5.85946">
        <ele>491</ele>
        <time>2016-05-15T07:09:52Z</time>
      </trkpt>
      <trkpt lat="43.53888" lon="5.8595">
        <ele>491</ele>
        <time>2016-05-15T07:09:55Z</time>
      </trkpt>
      <trkpt lat="43.5387" lon="5.85957">
        <ele>490</ele>
        <time>2016-05-15T07:09:58Z</time>
      </trkpt>
      <trkpt lat="43.53851" lon="5.85964">
        <ele>490</ele>
        <time>2016-05-15T07:10:01Z</time>
      </trkpt>
      <trkpt lat="43.53836" lon="5.85977">
        <ele>488</ele>
        <time>2016-05-15T07:10:04Z</time>
      </trkpt>
      <trkpt lat="43.53819" lon="5.8599">
        <ele>486</ele>
        <time>2016-05-15T07:10:07Z</time>
      </trkpt>
      <trkpt lat="43.53801" lon="5.86001">
        <ele>485</ele>
        <time>2016-05-15T07:10:10Z</time>
      </trkpt>
      <trkpt lat="43.53781" lon="5.86015">
        <ele>485</ele>
        <time>2016-05-15T07:10:14Z</time>
      </trkpt>
      <trkpt lat="43.5376" lon="5.86029">
        <ele>485</ele>
        <time>2016-05-15T07:10:18Z</time>
      </trkpt>
      <trkpt lat="43.53744" lon="5.8604">
        <ele>484</ele>
        <time>2016-05-15T07:10:21Z</time>
      </trkpt>
      <trkpt lat="43.53723" lon="5.86056">
        <ele>484</ele>
        <time>2016-05-15T07:10:25Z</time>
      </trkpt>
      <trkpt lat="43.53704" lon="5.86075">
        <ele>484</ele>
        <time>2016-05-15T07:10:29Z</time>
      </trkpt>
      <trkpt lat="43.53688" lon="5.86097">
        <ele>483</ele>
        <time>2016-05-15T07:10:33Z</time>
      </trkpt>
      <trkpt lat="43.53675" lon="5.86124">
        <ele>483</ele>
        <time>2016-05-15T07:10:37Z</time>
      </trkpt>
      <trkpt lat="43.53664" lon="5.86152">
        <ele>480</ele>
        <time>2016-05-15T07:10:41Z</time>
      </trkpt>
      <trkpt lat="43.53651" lon="5.86176">
        <ele>482</ele>
        <time>2016-05-15T07:10:45Z</time>
      </trkpt>
      <trkpt lat="43.5363" lon="5.86168">
        <ele>481</ele>
        <time>2016-05-15T07:10:49Z</time>
      </trkpt>
      <trkpt lat="43.53615" lon="5.86144">
        <ele>479</ele>
        <time>2016-05-15T07:10:53Z</time>
      </trkpt>
      <trkpt lat="43.53599" lon="5.86127">
        <ele>479</ele>
        <time>2016-05-15T07:10:57Z</time>
      </trkpt>
      <trkpt lat="43.53576" lon="5.86132">
        <ele>478</ele>
        <time>2016-05-15T07:11:01Z</time>
      </trkpt>
      <trkpt lat="43.5356" lon="5.86148">
        <ele>477</ele>
        <time>2016-05-15T07:11:04Z</time>
      </trkpt>
      <trkpt lat="43.53544" lon="5.86171">
        <ele>475</ele>
        <time>2016-05-15T07:11:08Z</time>
      </trkpt>
      <trkpt lat="43.53525" lon="5.86186">
        <ele>474</ele>
        <time>2016-05-15T07:11:12Z</time>
      </trkpt>
      <trkpt lat="43.53504" lon="5.86185">
        <ele>473</ele>
        <time>2016-05-15T07:11:16Z</time>
      </trkpt>
      <trkpt lat="43.53491" lon="5.86159">
        <ele>473</ele>
        <time>2016-05-15T07:11:20Z</time>
      </trkpt>
      <trkpt lat="43.53474" lon="5.86148">
        <ele>475</ele>
        <time>2016-05-15T07:11:23Z</time>
      </trkpt>
      <trkpt lat="43.53454" lon="5.86153">
        <ele>475</ele>
        <time>2016-05-15T07:11:26Z</time>
      </trkpt>
      <trkpt lat="43.53437" lon="5.86168">
        <ele>471</ele>
        <time>2016-05-15T07:11:29Z</time>
      </trkpt>
      <trkpt lat="43.5342" lon="5.86184">
        <ele>471</ele>
        <time>2016-05-15T07:11:56Z</time>
      </trkpt>
      <trkpt lat="43.53402" lon="5.86195">
        <ele>473</ele>
        <time>2016-05-15T07:12:03Z</time>
      </trkpt>
      <trkpt lat="43.53384" lon="5.86205">
        <ele>474</ele>
        <time>2016-05-15T07:12:07Z</time>
      </trkpt>
      <trkpt lat="43.53364" lon="5.86206">
        <ele>474</ele>
        <time>2016-05-15T07:12:13Z</time>
      </trkpt>
      <trkpt lat="43.53345" lon="5.86196">
        <ele>474</ele>
        <time>2016-05-15T07:12:19Z</time>
      </trkpt>
      <trkpt lat="43.5333" lon="5.86181">
        <ele>475</ele>
        <time>2016-05-15T07:12:25Z</time>
      </trkpt>
      <trkpt lat="43.53313" lon="5.86167">
        <ele>476</ele>
        <time>2016-05-15T07:12:29Z</time>
      </trkpt>
      <trkpt lat="43.53296" lon="5.86154">
        <ele>474</ele>
        <time>2016-05-15T07:12:33Z</time>
      </trkpt>
      <trkpt lat="43.53278" lon="5.86141">
        <ele>474</ele>
        <time>2016-05-15T07:12:37Z</time>
      </trkpt>
      <trkpt lat="43.53262" lon="5.86127">
        <ele>473</ele>
        <time>2016-05-15T07:12:41Z</time>
      </trkpt>
      <trkpt lat="43.53246" lon="5.86115">
        <ele>469</ele>
        <time>2016-05-15T07:12:45Z</time>
      </trkpt>
      <trkpt lat="43.53225" lon="5.86104">
        <ele>469</ele>
        <time>2016-05-15T07:12:49Z</time>
      </trkpt>
      <trkpt lat="43.53207" lon="5.8609">
        <ele>468</ele>
        <time>2016-05-15T07:12:53Z</time>
      </trkpt>
      <trkpt lat="43.53188" lon="5.86075">
        <ele>466</ele>
        <time>2016-05-15T07:12:57Z</time>
      </trkpt>
      <trkpt lat="43.53182" lon="5.86049">
        <ele>467</ele>
        <time>2016-05-15T07:14:51Z</time>
      </trkpt>
      <trkpt lat="43.53164" lon="5.86054">
        <ele>468</ele>
        <time>2016-05-15T07:15:03Z</time>
      </trkpt>
      <trkpt lat="43.53146" lon="5.86066">
        <ele>468</ele>
        <time>2016-05-15T07:15:07Z</time>
      </trkpt>
      <trkpt lat="43.53128" lon="5.86073">
        <ele>468</ele>
        <time>2016-05-15T07:15:11Z</time>
      </trkpt>
      <trkpt lat="43.53107" lon="5.86085">
        <ele>467</ele>
        <time>2016-05-15T07:15:16Z</time>
      </trkpt>
      <trkpt lat="43.53092" lon="5.86104">
        <ele>466</ele>
        <time>2016-05-15T07:15:20Z</time>
      </trkpt>
      <trkpt lat="43.53076" lon="5.86125">
        <ele>467</ele>
        <time>2016-05-15T07:15:25Z</time>
      </trkpt>
      <trkpt lat="43.53062" lon="5.86142">
        <ele>467</ele>
        <time>2016-05-15T07:15:30Z</time>
      </trkpt>
      <trkpt lat="43.53042" lon="5.86153">
        <ele>468</ele>
        <time>2016-05-15T07:15:35Z</time>
      </trkpt>
      <trkpt lat="43.53024" lon="5.86165">
        <ele>468</ele>
        <time>2016-05-15T07:15:39Z</time>
      </trkpt>
      <trkpt lat="43.53008" lon="5.86177">
        <ele>465</ele>
        <time>2016-05-15T07:15:43Z</time>
      </trkpt>
      <trkpt lat="43.52996" lon="5.86203">
        <ele>468</ele>
        <time>2016-05-15T07:15:47Z</time>
      </trkpt>
      <trkpt lat="43.52993" lon="5.86228">
        <ele>466</ele>
        <time>2016-05-15T07:15:50Z</time>
      </trkpt>
      <trkpt lat="43.52989" lon="5.86256">
        <ele>462</ele>
        <time>2016-05-15T07:15:53Z</time>
      </trkpt>
      <trkpt lat="43.52986" lon="5.86282">
        <ele>463</ele>
        <time>2016-05-15T07:15:56Z</time>
      </trkpt>
      <trkpt lat="43.5298" lon="5.86306">
        <ele>463</ele>
        <time>2016-05-15T07:15:59Z</time>
      </trkpt>
      <trkpt lat="43.52966" lon="5.86331">
        <ele>463</ele>
        <time>2016-05-15T07:16:03Z</time>
      </trkpt>
      <trkpt lat="43.52949" lon="5.86348">
        <ele>461</ele>
        <time>2016-05-15T07:16:07Z</time>
      </trkpt>
      <trkpt lat="43.52932" lon="5.86363">
        <ele>461</ele>
        <time>2016-05-15T07:16:11Z</time>
      </trkpt>
      <trkpt lat="43.52914" lon="5.86379">
        <ele>461</ele>
        <time>2016-05-15T07:16:15Z</time>
      </trkpt>
      <trkpt lat="43.52899" lon="5.86402">
        <ele>459</ele>
        <time>2016-05-15T07:16:19Z</time>
      </trkpt>
      <trkpt lat="43.52882" lon="5.86419">
        <ele>457</ele>
        <time>2016-05-15T07:16:23Z</time>
      </trkpt>
      <trkpt lat="43.52865" lon="5.86439">
        <ele>458</ele>
        <time>2016-05-15T07:16:27Z</time>
      </trkpt>
      <trkpt lat="43.52849" lon="5.86453">
        <ele>457</ele>
        <time>2016-05-15T07:16:30Z</time>
      </trkpt>
      <trkpt lat="43.52832" lon="5.86473">
        <ele>461</ele>
        <time>2016-05-15T07:16:34Z</time>
      </trkpt>
      <trkpt lat="43.52818" lon="5.86496">
        <ele>459</ele>
        <time>2016-05-15T07:16:38Z</time>
      </trkpt>
      <trkpt lat="43.52809" lon="5.86526">
        <ele>459</ele>
        <time>2016-05-15T07:16:42Z</time>
      </trkpt>
      <trkpt lat="43.52807" lon="5.86557">
        <ele>459</ele>
        <time>2016-05-15T07:16:46Z</time>
      </trkpt>
      <trkpt lat="43.52814" lon="5.86587">
        <ele>453</ele>
        <time>2016-05-15T07:16:50Z</time>
      </trkpt>
      <trkpt lat="43.52821" lon="5.86616">
        <ele>452</ele>
        <time>2016-05-15T07:16:54Z</time>
      </trkpt>
      <trkpt lat="43.52818" lon="5.86644">
        <ele>450</ele>
        <time>2016-05-15T07:16:58Z</time>
      </trkpt>
      <trkpt lat="43.52804" lon="5.86662">
        <ele>451</ele>
        <time>2016-05-15T07:17:02Z</time>
      </trkpt>
      <trkpt lat="43.52793" lon="5.86689">
        <ele>446</ele>
        <time>2016-05-15T07:17:06Z</time>
      </trkpt>
      <trkpt lat="43.52778" lon="5.86711">
        <ele>445</ele>
        <time>2016-05-15T07:17:10Z</time>
      </trkpt>
      <trkpt lat="43.52763" lon="5.86736">
        <ele>442</ele>
        <time>2016-05-15T07:17:14Z</time>
      </trkpt>
      <trkpt lat="43.52751" lon="5.86758">
        <ele>439</ele>
        <time>2016-05-15T07:17:18Z</time>
      </trkpt>
      <trkpt lat="43.5274" lon="5.86784">
        <ele>444</ele>
        <time>2016-05-15T07:17:22Z</time>
      </trkpt>
      <trkpt lat="43.52727" lon="5.86809">
        <ele>444</ele>
        <time>2016-05-15T07:17:26Z</time>
      </trkpt>
      <trkpt lat="43.52724" lon="5.86837">
        <ele>443</ele>
        <time>2016-05-15T07:17:30Z</time>
      </trkpt>
      <trkpt lat="43.52726" lon="5.86869">
        <ele>445</ele>
        <time>2016-05-15T07:17:34Z</time>
      </trkpt>
      <trkpt lat="43.52733" lon="5.86897">
        <ele>444</ele>
        <time>2016-05-15T07:17:38Z</time>
      </trkpt>
      <trkpt lat="43.52741" lon="5.86924">
        <ele>439</ele>
        <time>2016-05-15T07:17:42Z</time>
      </trkpt>
      <trkpt lat="43.52749" lon="5.86951">
        <ele>441</ele>
        <time>2016-05-15T07:17:46Z</time>
      </trkpt>
      <trkpt lat="43.52754" lon="5.86981">
        <ele>436</ele>
        <time>2016-05-15T07:17:50Z</time>
      </trkpt>
      <trkpt lat="43.5275" lon="5.87009">
        <ele>431</ele>
        <time>2016-05-15T07:17:54Z</time>
      </trkpt>
      <trkpt lat="43.52734" lon="5.87029">
        <ele>436</ele>
        <time>2016-05-15T07:17:59Z</time>
      </trkpt>
      <trkpt lat="43.52718" lon="5.87049">
        <ele>437</ele>
        <time>2016-05-15T07:18:04Z</time>
      </trkpt>
      <trkpt lat="43.52708" lon="5.87074">
        <ele>438</ele>
        <time>2016-05-15T07:18:08Z</time>
      </trkpt>
      <trkpt lat="43.52701" lon="5.87099">
        <ele>436</ele>
        <time>2016-05-15T07:18:12Z</time>
      </trkpt>
      <trkpt lat="43.52701" lon="5.87128">
        <ele>436</ele>
        <time>2016-05-15T07:18:17Z</time>
      </trkpt>
      <trkpt lat="43.52703" lon="5.87155">
        <ele>435</ele>
        <time>2016-05-15T07:18:21Z</time>
      </trkpt>
      <trkpt lat="43.52707" lon="5.8718">
        <ele>433</ele>
        <time>2016-05-15T07:18:25Z</time>
      </trkpt>
      <trkpt lat="43.52709" lon="5.87206">
        <ele>432</ele>
        <time>2016-05-15T07:18:29Z</time>
      </trkpt>
      <trkpt lat="43.52705" lon="5.8723">
        <ele>430</ele>
        <time>2016-05-15T07:18:33Z</time>
      </trkpt>
      <trkpt lat="43.52696" lon="5.87255">
        <ele>427</ele>
        <time>2016-05-15T07:18:37Z</time>
      </trkpt>
      <trkpt lat="43.52678" lon="5.87273">
        <ele>426</ele>
        <time>2016-05-15T07:18:42Z</time>
      </trkpt>
      <trkpt lat="43.52661" lon="5.87291">
        <ele>428</ele>
        <time>2016-05-15T07:18:46Z</time>
      </trkpt>
      <trkpt lat="43.52644" lon="5.87312">
        <ele>429</ele>
        <time>2016-05-15T07:18:50Z</time>
      </trkpt>
      <trkpt lat="43.5263" lon="5.87334">
        <ele>427</ele>
        <time>2016-05-15T07:18:54Z</time>
      </trkpt>
      <trkpt lat="43.52621" lon="5.87357">
        <ele>428</ele>
        <time>2016-05-15T07:18:58Z</time>
      </trkpt>
      <trkpt lat="43.52624" lon="5.87385">
        <ele>426</ele>
        <time>2016-05-15T07:19:02Z</time>
      </trkpt>
      <trkpt lat="43.52635" lon="5.8741">
        <ele>424</ele>
        <time>2016-05-15T07:19:06Z</time>
      </trkpt>
      <trkpt lat="43.5264" lon="5.87437">
        <ele>423</ele>
        <time>2016-05-15T07:19:09Z</time>
      </trkpt>
      <trkpt lat="43.52629" lon="5.87462">
        <ele>424</ele>
        <time>2016-05-15T07:19:14Z</time>
      </trkpt>
      <trkpt lat="43.52608" lon="5.87466">
        <ele>423</ele>
        <time>2016-05-15T07:19:18Z</time>
      </trkpt>
      <trkpt lat="43.52591" lon="5.87478">
        <ele>422</ele>
        <time>2016-05-15T07:19:22Z</time>
      </trkpt>
      <trkpt lat="43.52575" lon="5.87493">
        <ele>424</ele>
        <time>2016-05-15T07:19:26Z</time>
      </trkpt>
      <trkpt lat="43.52557" lon="5.87512">
        <ele>426</ele>
        <time>2016-05-15T07:19:30Z</time>
      </trkpt>
      <trkpt lat="43.52538" lon="5.87527">
        <ele>430</ele>
        <time>2016-05-15T07:19:34Z</time>
      </trkpt>
      <trkpt lat="43.52527" lon="5.87551">
        <ele>430</ele>
        <time>2016-05-15T07:19:38Z</time>
      </trkpt>
      <trkpt lat="43.52528" lon="5.87581">
        <ele>429</ele>
        <time>2016-05-15T07:19:42Z</time>
      </trkpt>
      <trkpt lat="43.52534" lon="5.87612">
        <ele>425</ele>
        <time>2016-05-15T07:19:46Z</time>
      </trkpt>
      <trkpt lat="43.5254" lon="5.87638">
        <ele>424</ele>
        <time>2016-05-15T07:19:50Z</time>
      </trkpt>
      <trkpt lat="43.52547" lon="5.87666">
        <ele>423</ele>
        <time>2016-05-15T07:19:54Z</time>
      </trkpt>
      <trkpt lat="43.52553" lon="5.87691">
        <ele>420</ele>
        <time>2016-05-15T07:19:58Z</time>
      </trkpt>
      <trkpt lat="43.52558" lon="5.87719">
        <ele>419</ele>
        <time>2016-05-15T07:20:02Z</time>
      </trkpt>
      <trkpt lat="43.52559" lon="5.87746">
        <ele>417</ele>
        <time>2016-05-15T07:20:06Z</time>
      </trkpt>
      <trkpt lat="43.52551" lon="5.87772">
        <ele>414</ele>
        <time>2016-05-15T07:20:11Z</time>
      </trkpt>
      <trkpt lat="43.52551" lon="5.87797">
        <ele>413</ele>
        <time>2016-05-15T07:20:15Z</time>
      </trkpt>
      <trkpt lat="43.52554" lon="5.87823">
        <ele>412</ele>
        <time>2016-05-15T07:20:19Z</time>
      </trkpt>
      <trkpt lat="43.5256" lon="5.87852">
        <ele>408</ele>
        <time>2016-05-15T07:20:23Z</time>
      </trkpt>
      <trkpt lat="43.5255" lon="5.87876">
        <ele>407</ele>
        <time>2016-05-15T07:20:27Z</time>
      </trkpt>
      <trkpt lat="43.52539" lon="5.87898">
        <ele>405</ele>
        <time>2016-05-15T07:20:31Z</time>
      </trkpt>
      <trkpt lat="43.52525" lon="5.87919">
        <ele>403</ele>
        <time>2016-05-15T07:20:35Z</time>
      </trkpt>
      <trkpt lat="43.52508" lon="5.87932">
        <ele>401</ele>
        <time>2016-05-15T07:20:39Z</time>
      </trkpt>
      <trkpt lat="43.52488" lon="5.87934">
        <ele>395</ele>
        <time>2016-05-15T07:20:43Z</time>
      </trkpt>
      <trkpt lat="43.52474" lon="5.87917">
        <ele>395</ele>
        <time>2016-05-15T07:20:47Z</time>
      </trkpt>
      <trkpt lat="43.52455" lon="5.87904">
        <ele>402</ele>
        <time>2016-05-15T07:20:51Z</time>
      </trkpt>
      <trkpt lat="43.52433" lon="5.87901">
        <ele>401</ele>
        <time>2016-05-15T07:20:56Z</time>
      </trkpt>
      <trkpt lat="43.52415" lon="5.87908">
        <ele>401</ele>
        <time>2016-05-15T07:21:00Z</time>
      </trkpt>
      <trkpt lat="43.52408" lon="5.87938">
        <ele>396</ele>
        <time>2016-05-15T07:21:05Z</time>
      </trkpt>
      <trkpt lat="43.52405" lon="5.87967">
        <ele>396</ele>
        <time>2016-05-15T07:21:09Z</time>
      </trkpt>
      <trkpt lat="43.52408" lon="5.87994">
        <ele>394</ele>
        <time>2016-05-15T07:21:12Z</time>
      </trkpt>
      <trkpt lat="43.52405" lon="5.88024">
        <ele>393</ele>
        <time>2016-05-15T07:21:16Z</time>
      </trkpt>
      <trkpt lat="43.52387" lon="5.88038">
        <ele>393</ele>
        <time>2016-05-15T07:21:20Z</time>
      </trkpt>
      <trkpt lat="43.52366" lon="5.88037">
        <ele>393</ele>
        <time>2016-05-15T07:21:24Z</time>
      </trkpt>
      <trkpt lat="43.52347" lon="5.8803">
        <ele>393</ele>
        <time>2016-05-15T07:21:28Z</time>
      </trkpt>
      <trkpt lat="43.52326" lon="5.88016">
        <ele>392</ele>
        <time>2016-05-15T07:21:32Z</time>
      </trkpt>
      <trkpt lat="43.52303" lon="5.8801">
        <ele>392</ele>
        <time>2016-05-15T07:21:36Z</time>
      </trkpt>
      <trkpt lat="43.5228" lon="5.88013">
        <ele>393</ele>
        <time>2016-05-15T07:21:40Z</time>
      </trkpt>
      <trkpt lat="43.5226" lon="5.88024">
        <ele>393</ele>
        <time>2016-05-15T07:21:44Z</time>
      </trkpt>
      <trkpt lat="43.52246" lon="5.88046">
        <ele>395</ele>
        <time>2016-05-15T07:21:49Z</time>
      </trkpt>
      <trkpt lat="43.52239" lon="5.88072">
        <ele>392</ele>
        <time>2016-05-15T07:21:53Z</time>
      </trkpt>
      <trkpt lat="43.52231" lon="5.881">
        <ele>390</ele>
        <time>2016-05-15T07:21:57Z</time>
      </trkpt>
      <trkpt lat="43.52222" lon="5.88125">
        <ele>391</ele>
        <time>2016-05-15T07:22:01Z</time>
      </trkpt>
      <trkpt lat="43.5221" lon="5.88145">
        <ele>391</ele>
        <time>2016-05-15T07:22:05Z</time>
      </trkpt>
      <trkpt lat="43.5219" lon="5.88159">
        <ele>388</ele>
        <time>2016-05-15T07:22:10Z</time>
      </trkpt>
      <trkpt lat="43.5217" lon="5.88166">
        <ele>384</ele>
        <time>2016-05-15T07:22:14Z</time>
      </trkpt>
      <trkpt lat="43.52152" lon="5.88157">
        <ele>387</ele>
        <time>2016-05-15T07:22:18Z</time>
      </trkpt>
      <trkpt lat="43.52134" lon="5.88153">
        <ele>389</ele>
        <time>2016-05-15T07:22:22Z</time>
      </trkpt>
      <trkpt lat="43.52114" lon="5.88159">
        <ele>389</ele>
        <time>2016-05-15T07:22:26Z</time>
      </trkpt>
      <trkpt lat="43.52096" lon="5.88168">
        <ele>388</ele>
        <time>2016-05-15T07:22:30Z</time>
      </trkpt>
      <trkpt lat="43.52078" lon="5.88178">
        <ele>387</ele>
        <time>2016-05-15T07:22:34Z</time>
      </trkpt>
      <trkpt lat="43.52062" lon="5.8819">
        <ele>386</ele>
        <time>2016-05-15T07:22:38Z</time>
      </trkpt>
      <trkpt lat="43.52043" lon="5.88202">
        <ele>386</ele>
        <time>2016-05-15T07:22:42Z</time>
      </trkpt>
      <trkpt lat="43.52022" lon="5.88213">
        <ele>385</ele>
        <time>2016-05-15T07:22:46Z</time>
      </trkpt>
      <trkpt lat="43.52002" lon="5.88221">
        <ele>384</ele>
        <time>2016-05-15T07:22:50Z</time>
      </trkpt>
      <trkpt lat="43.5198" lon="5.88217">
        <ele>381</ele>
        <time>2016-05-15T07:22:55Z</time>
      </trkpt>
      <trkpt lat="43.51965" lon="5.88197">
        <ele>381</ele>
        <time>2016-05-15T07:23:00Z</time>
      </trkpt>
      <trkpt lat="43.51947" lon="5.88187">
        <ele>380</ele>
        <time>2016-05-15T07:23:04Z</time>
      </trkpt>
      <trkpt lat="43.51927" lon="5.8819">
        <ele>380</ele>
        <time>2016-05-15T07:23:08Z</time>
      </trkpt>
      <trkpt lat="43.51907" lon="5.88195">
        <ele>378</ele>
        <time>2016-05-15T07:23:12Z</time>
      </trkpt>
      <trkpt lat="43.51884" lon="5.88196">
        <ele>378</ele>
        <time>2016-05-15T07:23:16Z</time>
      </trkpt>
      <trkpt lat="43.51864" lon="5.88199">
        <ele>377</ele>
        <time>2016-05-15T07:23:20Z</time>
      </trkpt>
      <trkpt lat="43.51843" lon="5.882">
        <ele>377</ele>
        <time>2016-05-15T07:23:24Z</time>
      </trkpt>
      <trkpt lat="43.51824" lon="5.8821">
        <ele>375</ele>
        <time>2016-05-15T07:23:28Z</time>
      </trkpt>
      <trkpt lat="43.51807" lon="5.88224">
        <ele>374</ele>
        <time>2016-05-15T07:23:32Z</time>
      </trkpt>
      <trkpt lat="43.51791" lon="5.88238">
        <ele>373</ele>
        <time>2016-05-15T07:23:36Z</time>
      </trkpt>
      <trkpt lat="43.51774" lon="5.88258">
        <ele>372</ele>
        <time>2016-05-15T07:23:40Z</time>
      </trkpt>
      <trkpt lat="43.51759" lon="5.8828">
        <ele>373</ele>
        <time>2016-05-15T07:23:44Z</time>
      </trkpt>
      <trkpt lat="43.51743" lon="5.88292">
        <ele>369</ele>
        <time>2016-05-15T07:23:48Z</time>
      </trkpt>
      <trkpt lat="43.51728" lon="5.88273">
        <ele>369</ele>
        <time>2016-05-15T07:23:52Z</time>
      </trkpt>
      <trkpt lat="43.51709" lon="5.88259">
        <ele>368</ele>
        <time>2016-05-15T07:23:56Z</time>
      </trkpt>
      <trkpt lat="43.51689" lon="5.88259">
        <ele>368</ele>
        <time>2016-05-15T07:24:00Z</time>
      </trkpt>
      <trkpt lat="43.51672" lon="5.88271">
        <ele>368</ele>
        <time>2016-05-15T07:24:05Z</time>
      </trkpt>
      <trkpt lat="43.51657" lon="5.88291">
        <ele>365</ele>
        <time>2016-05-15T07:24:11Z</time>
      </trkpt>
      <trkpt lat="43.51649" lon="5.88314">
        <ele>365</ele>
        <time>2016-05-15T07:24:16Z</time>
      </trkpt>
      <trkpt lat="43.51634" lon="5.88334">
        <ele>369</ele>
        <time>2016-05-15T07:24:22Z</time>
      </trkpt>
      <trkpt lat="43.51615" lon="5.88337">
        <ele>368</ele>
        <time>2016-05-15T07:24:27Z</time>
      </trkpt>
      <trkpt lat="43.516" lon="5.88316">
        <ele>364</ele>
        <time>2016-05-15T07:24:32Z</time>
      </trkpt>
      <trkpt lat="43.5159" lon="5.88294">
        <ele>364</ele>
        <time>2016-05-15T07:24:36Z</time>
      </trkpt>
      <trkpt lat="43.51578" lon="5.88273">
        <ele>365</ele>
        <time>2016-05-15T07:24:40Z</time>
      </trkpt>
      <trkpt lat="43.51565" lon="5.88256">
        <ele>365</ele>
        <time>2016-05-15T07:24:44Z</time>
      </trkpt>
      <trkpt lat="43.51545" lon="5.88256">
        <ele>365</ele>
        <time>2016-05-15T07:24:48Z</time>
      </trkpt>
      <trkpt lat="43.51527" lon="5.88268">
        <ele>366</ele>
        <time>2016-05-15T07:24:52Z</time>
      </trkpt>
      <trkpt lat="43.51508" lon="5.88284">
        <ele>365</ele>
        <time>2016-05-15T07:24:56Z</time>
      </trkpt>
      <trkpt lat="43.51493" lon="5.883">
        <ele>363</ele>
        <time>2016-05-15T07:25:00Z</time>
      </trkpt>
      <trkpt lat="43.5148" lon="5.88322">
        <ele>361</ele>
        <time>2016-05-15T07:25:04Z</time>
      </trkpt>
      <trkpt lat="43.51467" lon="5.88339">
        <ele>362</ele>
        <time>2016-05-15T07:25:08Z</time>
      </trkpt>
      <trkpt lat="43.51449" lon="5.88352">
        <ele>363</ele>
        <time>2016-05-15T07:25:12Z</time>
      </trkpt>
      <trkpt lat="43.51428" lon="5.88347">
        <ele>360</ele>
        <time>2016-05-15T07:25:16Z</time>
      </trkpt>
      <trkpt lat="43.51415" lon="5.88328">
        <ele>356</ele>
        <time>2016-05-15T07:25:20Z</time>
      </trkpt>
      <trkpt lat="43.514" lon="5.8831">
        <ele>359</ele>
        <time>2016-05-15T07:25:24Z</time>
      </trkpt>
      <trkpt lat="43.51385" lon="5.88293">
        <ele>360</ele>
        <time>2016-05-15T07:25:28Z</time>
      </trkpt>
      <trkpt lat="43.51361" lon="5.88287">
        <ele>360</ele>
        <time>2016-05-15T07:25:32Z</time>
      </trkpt>
      <trkpt lat="43.51342" lon="5.88289">
        <ele>360</ele>
        <time>2016-05-15T07:25:35Z</time>
      </trkpt>
      <trkpt lat="43.51319" lon="5.88298">
        <ele>360</ele>
        <time>2016-05-15T07:25:39Z</time>
      </trkpt>
      <trkpt lat="43.51301" lon="5.88312">
        <ele>360</ele>
        <time>2016-05-15T07:25:43Z</time>
      </trkpt>
      <trkpt lat="43.51291" lon="5.88336">
        <ele>355</ele>
        <time>2016-05-15T07:25:47Z</time>
      </trkpt>
      <trkpt lat="43.51286" lon="5.88366">
        <ele>354</ele>
        <time>2016-05-15T07:25:51Z</time>
      </trkpt>
      <trkpt lat="43.51274" lon="5.88387">
        <ele>353</ele>
        <time>2016-05-15T07:25:55Z</time>
      </trkpt>
      <trkpt lat="43.5126" lon="5.88409">
        <ele>348</ele>
        <time>2016-05-15T07:26:00Z</time>
      </trkpt>
      <trkpt lat="43.51245" lon="5.88425">
        <ele>345</ele>
        <time>2016-05-15T07:26:07Z</time>
      </trkpt>
      <trkpt lat="43.51228" lon="5.88412">
        <ele>345</ele>
        <time>2016-05-15T07:26:16Z</time>
      </trkpt>
      <trkpt lat="43.51209" lon="5.88406">
        <ele>345</ele>
        <time>2016-05-15T07:26:20Z</time>
      </trkpt>
      <trkpt lat="43.51188" lon="5.88417">
        <ele>343</ele>
        <time>2016-05-15T07:26:24Z</time>
      </trkpt>
      <trkpt lat="43.51168" lon="5.88423">
        <ele>341</ele>
        <time>2016-05-15T07:26:29Z</time>
      </trkpt>
      <trkpt lat="43.51162" lon="5.88398">
        <ele>342</ele>
        <time>2016-05-15T07:26:33Z</time>
      </trkpt>
      <trkpt lat="43.5116" lon="5.88368">
        <ele>343</ele>
        <time>2016-05-15T07:26:37Z</time>
      </trkpt>
      <trkpt lat="43.51155" lon="5.88343">
        <ele>345</ele>
        <time>2016-05-15T07:26:41Z</time>
      </trkpt>
      <trkpt lat="43.51135" lon="5.88327">
        <ele>350</ele>
        <time>2016-05-15T07:26:46Z</time>
      </trkpt>
      <trkpt lat="43.51113" lon="5.88331">
        <ele>348</ele>
        <time>2016-05-15T07:26:50Z</time>
      </trkpt>
      <trkpt lat="43.51091" lon="5.8834">
        <ele>341</ele>
        <time>2016-05-15T07:26:54Z</time>
      </trkpt>
      <trkpt lat="43.51071" lon="5.88347">
        <ele>343</ele>
        <time>2016-05-15T07:26:58Z</time>
      </trkpt>
      <trkpt lat="43.51049" lon="5.88345">
        <ele>344</ele>
        <time>2016-05-15T07:27:03Z</time>
      </trkpt>
      <trkpt lat="43.51031" lon="5.88348">
        <ele>344</ele>
        <time>2016-05-15T07:27:07Z</time>
      </trkpt>
      <trkpt lat="43.51009" lon="5.88353">
        <ele>345</ele>
        <time>2016-05-15T07:27:12Z</time>
      </trkpt>
      <trkpt lat="43.50989" lon="5.8836">
        <ele>343</ele>
        <time>2016-05-15T07:27:16Z</time>
      </trkpt>
      <trkpt lat="43.50967" lon="5.88368">
        <ele>342</ele>
        <time>2016-05-15T07:27:20Z</time>
      </trkpt>
      <trkpt lat="43.50949" lon="5.88379">
        <ele>341</ele>
        <time>2016-05-15T07:27:24Z</time>
      </trkpt>
      <trkpt lat="43.50926" lon="5.88386">
        <ele>339</ele>
        <time>2016-05-15T07:27:28Z</time>
      </trkpt>
      <trkpt lat="43.50903" lon="5.88392">
        <ele>334</ele>
        <time>2016-05-15T07:27:32Z</time>
      </trkpt>
      <trkpt lat="43.50881" lon="5.88398">
        <ele>333</ele>
        <time>2016-05-15T07:27:36Z</time>
      </trkpt>
      <trkpt lat="43.50862" lon="5.88402">
        <ele>333</ele>
        <time>2016-05-15T07:27:40Z</time>
      </trkpt>
      <trkpt lat="43.50844" lon="5.88408">
        <ele>331</ele>
        <time>2016-05-15T07:27:44Z</time>
      </trkpt>
      <trkpt lat="43.50826" lon="5.88403">
        <ele>329</ele>
        <time>2016-05-15T07:27:48Z</time>
      </trkpt>
      <trkpt lat="43.50815" lon="5.88378">
        <ele>329</ele>
        <time>2016-05-15T07:27:53Z</time>
      </trkpt>
      <trkpt lat="43.50817" lon="5.88349">
        <ele>329</ele>
        <time>2016-05-15T07:27:58Z</time>
      </trkpt>
      <trkpt lat="43.50814" lon="5.8832">
        <ele>334</ele>
        <time>2016-05-15T07:28:02Z</time>
      </trkpt>
      <trkpt lat="43.508" lon="5.88297">
        <ele>335</ele>
        <time>2016-05-15T07:28:07Z</time>
      </trkpt>
      <trkpt lat="43.5078" lon="5.88292">
        <ele>335</ele>
        <time>2016-05-15T07:28:11Z</time>
      </trkpt>
      <trkpt lat="43.50759" lon="5.88297">
        <ele>334</ele>
        <time>2016-05-15T07:28:15Z</time>
      </trkpt>
      <trkpt lat="43.5074" lon="5.88308">
        <ele>334</ele>
        <time>2016-05-15T07:28:19Z</time>
      </trkpt>
      <trkpt lat="43.50725" lon="5.88327">
        <ele>334</ele>
        <time>2016-05-15T07:28:24Z</time>
      </trkpt>
      <trkpt lat="43.50715" lon="5.88349">
        <ele>329</ele>
        <time>2016-05-15T07:28:28Z</time>
      </trkpt>
      <trkpt lat="43.50704" lon="5.88369">
        <ele>329</ele>
        <time>2016-05-15T07:28:32Z</time>
      </trkpt>
      <trkpt lat="43.50692" lon="5.8839">
        <ele>327</ele>
        <time>2016-05-15T07:28:37Z</time>
      </trkpt>
      <trkpt lat="43.50681" lon="5.88412">
        <ele>325</ele>
        <time>2016-05-15T07:28:41Z</time>
      </trkpt>
      <trkpt lat="43.50665" lon="5.88428">
        <ele>322</ele>
        <time>2016-05-15T07:28:45Z</time>
      </trkpt>
      <trkpt lat="43.50647" lon="5.88436">
        <ele>323</ele>
        <time>2016-05-15T07:28:49Z</time>
      </trkpt>
      <trkpt lat="43.50631" lon="5.88446">
        <ele>324</ele>
        <time>2016-05-15T07:28:53Z</time>
      </trkpt>
      <trkpt lat="43.50611" lon="5.88454">
        <ele>324</ele>
        <time>2016-05-15T07:28:57Z</time>
      </trkpt>
      <trkpt lat="43.50591" lon="5.8846">
        <ele>324</ele>
        <time>2016-05-15T07:29:01Z</time>
      </trkpt>
      <trkpt lat="43.50572" lon="5.88473">
        <ele>326</ele>
        <time>2016-05-15T07:29:05Z</time>
      </trkpt>
      <trkpt lat="43.50556" lon="5.88493">
        <ele>325</ele>
        <time>2016-05-15T07:29:09Z</time>
      </trkpt>
      <trkpt lat="43.50541" lon="5.88515">
        <ele>322</ele>
        <time>2016-05-15T07:29:13Z</time>
      </trkpt>
      <trkpt lat="43.50526" lon="5.88534">
        <ele>322</ele>
        <time>2016-05-15T07:29:17Z</time>
      </trkpt>
      <trkpt lat="43.50511" lon="5.88549">
        <ele>321</ele>
        <time>2016-05-15T07:29:21Z</time>
      </trkpt>
      <trkpt lat="43.50493" lon="5.88561">
        <ele>319</ele>
        <time>2016-05-15T07:29:26Z</time>
      </trkpt>
      <trkpt lat="43.50476" lon="5.88576">
        <ele>319</ele>
        <time>2016-05-15T07:29:30Z</time>
      </trkpt>
      <trkpt lat="43.50455" lon="5.88591">
        <ele>317</ele>
        <time>2016-05-15T07:29:34Z</time>
      </trkpt>
      <trkpt lat="43.50438" lon="5.88602">
        <ele>317</ele>
        <time>2016-05-15T07:29:38Z</time>
      </trkpt>
      <trkpt lat="43.50418" lon="5.88615">
        <ele>317</ele>
        <time>2016-05-15T07:29:43Z</time>
      </trkpt>
      <trkpt lat="43.504" lon="5.88627">
        <ele>313</ele>
        <time>2016-05-15T07:29:47Z</time>
      </trkpt>
      <trkpt lat="43.50385" lon="5.88639">
        <ele>312</ele>
        <time>2016-05-15T07:29:51Z</time>
      </trkpt>
      <trkpt lat="43.5037" lon="5.88654">
        <ele>311</ele>
        <time>2016-05-15T07:29:55Z</time>
      </trkpt>
    </trkseg>
  </trk>
</gpx>